<?xml version="1.0" encoding="UTF-8" standalone="no" ?>
<gpx xmlns="http://www.topografix.com/GPX/1/1" xmlns:xsi="http://www.w3.org/2001/XMLSchema-instance" xsi:schemaLocation="http://www.topografix.com/GPX/1/1 http://www.topografix.com/GPX/1/1/gpx.xsd" version="1.1" creator="VisuGPX - https://www.visugpx.com">
  <metadata>
    <name>Davrinche20104</name>
    <desc><![CDATA[la partie 4 des itinéraires de repérage]]></desc>
  </metadata>
  <trk>
    <name><![CDATA[--Chapdes-Beaufort-- OR-5373892:ser-jb03-l]]></name>
    <trkseg>
      <trkpt lat="45.89274" lon="2.86171">
        <ele>779</ele>
        <time>2015-10-17T12:39:25Z</time>
      </trkpt>
      <trkpt lat="45.89255" lon="2.86172">
        <ele>780</ele>
        <time>2015-10-17T12:41:25Z</time>
      </trkpt>
      <trkpt lat="45.89248" lon="2.86157">
        <ele>780</ele>
        <time>2015-10-17T12:43:25Z</time>
      </trkpt>
      <trkpt lat="45.89251" lon="2.86131">
        <ele>778</ele>
        <time>2015-10-17T12:45:25Z</time>
      </trkpt>
      <trkpt lat="45.89256" lon="2.86099">
        <ele>777</ele>
        <time>2015-10-17T12:47:25Z</time>
      </trkpt>
      <trkpt lat="45.89257" lon="2.86077">
        <ele>776</ele>
        <time>2015-10-17T12:49:25Z</time>
      </trkpt>
      <trkpt lat="45.89255" lon="2.8605">
        <ele>774</ele>
        <time>2015-10-17T12:51:25Z</time>
      </trkpt>
      <trkpt lat="45.89256" lon="2.86004">
        <ele>772</ele>
        <time>2015-10-17T12:53:25Z</time>
      </trkpt>
      <trkpt lat="45.89256" lon="2.8598">
        <ele>773</ele>
        <time>2015-10-17T12:55:25Z</time>
      </trkpt>
      <trkpt lat="45.89269" lon="2.85975">
        <ele>773</ele>
        <time>2015-10-17T12:57:25Z</time>
      </trkpt>
      <trkpt lat="45.89283" lon="2.85975">
        <ele>774</ele>
        <time>2015-10-17T12:59:25Z</time>
      </trkpt>
      <trkpt lat="45.89293" lon="2.85972">
        <ele>774</ele>
        <time>2015-10-17T13:01:25Z</time>
      </trkpt>
      <trkpt lat="45.89305" lon="2.85965">
        <ele>774</ele>
        <time>2015-10-17T13:03:25Z</time>
      </trkpt>
      <trkpt lat="45.89314" lon="2.8595">
        <ele>775</ele>
        <time>2015-10-17T13:05:25Z</time>
      </trkpt>
      <trkpt lat="45.8932" lon="2.85928">
        <ele>775</ele>
        <time>2015-10-17T13:07:25Z</time>
      </trkpt>
      <trkpt lat="45.89328" lon="2.85902">
        <ele>776</ele>
        <time>2015-10-17T13:09:25Z</time>
      </trkpt>
      <trkpt lat="45.89336" lon="2.85877">
        <ele>777</ele>
        <time>2015-10-17T13:11:25Z</time>
      </trkpt>
      <trkpt lat="45.89346" lon="2.85846">
        <ele>778</ele>
        <time>2015-10-17T13:13:25Z</time>
      </trkpt>
      <trkpt lat="45.89354" lon="2.85826">
        <ele>779</ele>
        <time>2015-10-17T13:15:25Z</time>
      </trkpt>
      <trkpt lat="45.89361" lon="2.85803">
        <ele>780</ele>
        <time>2015-10-17T13:17:25Z</time>
      </trkpt>
      <trkpt lat="45.89368" lon="2.85781">
        <ele>780</ele>
        <time>2015-10-17T13:19:25Z</time>
      </trkpt>
      <trkpt lat="45.89375" lon="2.85748">
        <ele>781</ele>
        <time>2015-10-17T13:21:25Z</time>
      </trkpt>
      <trkpt lat="45.89381" lon="2.85718">
        <ele>781</ele>
        <time>2015-10-17T13:23:25Z</time>
      </trkpt>
      <trkpt lat="45.89387" lon="2.85697">
        <ele>781</ele>
        <time>2015-10-17T13:25:25Z</time>
      </trkpt>
      <trkpt lat="45.89392" lon="2.85679">
        <ele>780</ele>
        <time>2015-10-17T13:27:25Z</time>
      </trkpt>
      <trkpt lat="45.89396" lon="2.8566">
        <ele>780</ele>
        <time>2015-10-17T13:29:25Z</time>
      </trkpt>
      <trkpt lat="45.89399" lon="2.85636">
        <ele>780</ele>
        <time>2015-10-17T13:31:25Z</time>
      </trkpt>
      <trkpt lat="45.89406" lon="2.85591">
        <ele>780</ele>
        <time>2015-10-17T13:33:25Z</time>
      </trkpt>
      <trkpt lat="45.89422" lon="2.8551">
        <ele>780</ele>
        <time>2015-10-17T13:35:25Z</time>
      </trkpt>
      <trkpt lat="45.89437" lon="2.85447">
        <ele>779</ele>
        <time>2015-10-17T13:37:25Z</time>
      </trkpt>
      <trkpt lat="45.89437" lon="2.85415">
        <ele>779</ele>
        <time>2015-10-17T13:39:25Z</time>
      </trkpt>
      <trkpt lat="45.89434" lon="2.85357">
        <ele>778</ele>
        <time>2015-10-17T13:41:25Z</time>
      </trkpt>
      <trkpt lat="45.89435" lon="2.85293">
        <ele>778</ele>
        <time>2015-10-17T13:43:25Z</time>
      </trkpt>
      <trkpt lat="45.89428" lon="2.85268">
        <ele>778</ele>
        <time>2015-10-17T13:45:25Z</time>
      </trkpt>
      <trkpt lat="45.89416" lon="2.85222">
        <ele>778</ele>
        <time>2015-10-17T13:47:25Z</time>
      </trkpt>
      <trkpt lat="45.89402" lon="2.85145">
        <ele>775</ele>
        <time>2015-10-17T13:49:25Z</time>
      </trkpt>
      <trkpt lat="45.89402" lon="2.85115">
        <ele>774</ele>
        <time>2015-10-17T13:51:25Z</time>
      </trkpt>
      <trkpt lat="45.89399" lon="2.85082">
        <ele>772</ele>
        <time>2015-10-17T13:53:25Z</time>
      </trkpt>
      <trkpt lat="45.89387" lon="2.85038">
        <ele>769</ele>
        <time>2015-10-17T13:55:25Z</time>
      </trkpt>
      <trkpt lat="45.89378" lon="2.84999">
        <ele>767</ele>
        <time>2015-10-17T13:57:25Z</time>
      </trkpt>
      <trkpt lat="45.89378" lon="2.84973">
        <ele>766</ele>
        <time>2015-10-17T13:59:25Z</time>
      </trkpt>
      <trkpt lat="45.89377" lon="2.84942">
        <ele>764</ele>
        <time>2015-10-17T14:01:25Z</time>
      </trkpt>
      <trkpt lat="45.89377" lon="2.849">
        <ele>762</ele>
        <time>2015-10-17T14:03:25Z</time>
      </trkpt>
      <trkpt lat="45.89383" lon="2.84869">
        <ele>761</ele>
        <time>2015-10-17T14:05:25Z</time>
      </trkpt>
      <trkpt lat="45.89387" lon="2.84839">
        <ele>760</ele>
        <time>2015-10-17T14:07:25Z</time>
      </trkpt>
      <trkpt lat="45.89396" lon="2.84804">
        <ele>758</ele>
        <time>2015-10-17T14:09:25Z</time>
      </trkpt>
      <trkpt lat="45.89404" lon="2.84757">
        <ele>756</ele>
        <time>2015-10-17T14:11:25Z</time>
      </trkpt>
      <trkpt lat="45.89412" lon="2.84725">
        <ele>754</ele>
        <time>2015-10-17T14:13:25Z</time>
      </trkpt>
      <trkpt lat="45.89422" lon="2.84684">
        <ele>751</ele>
        <time>2015-10-17T14:15:25Z</time>
      </trkpt>
      <trkpt lat="45.89428" lon="2.84636">
        <ele>749</ele>
        <time>2015-10-17T14:17:25Z</time>
      </trkpt>
      <trkpt lat="45.89431" lon="2.84597">
        <ele>747</ele>
        <time>2015-10-17T14:19:25Z</time>
      </trkpt>
      <trkpt lat="45.89433" lon="2.84572">
        <ele>745</ele>
        <time>2015-10-17T14:21:25Z</time>
      </trkpt>
      <trkpt lat="45.89444" lon="2.84547">
        <ele>744</ele>
        <time>2015-10-17T14:23:25Z</time>
      </trkpt>
      <trkpt lat="45.89451" lon="2.8453">
        <ele>743</ele>
        <time>2015-10-17T14:25:25Z</time>
      </trkpt>
      <trkpt lat="45.89463" lon="2.84517">
        <ele>743</ele>
        <time>2015-10-17T14:27:25Z</time>
      </trkpt>
      <trkpt lat="45.89479" lon="2.84507">
        <ele>743</ele>
        <time>2015-10-17T14:29:25Z</time>
      </trkpt>
      <trkpt lat="45.89489" lon="2.84486">
        <ele>743</ele>
        <time>2015-10-17T14:31:25Z</time>
      </trkpt>
      <trkpt lat="45.8949" lon="2.84462">
        <ele>741</ele>
        <time>2015-10-17T14:33:25Z</time>
      </trkpt>
      <trkpt lat="45.89483" lon="2.84438">
        <ele>739</ele>
        <time>2015-10-17T14:35:25Z</time>
      </trkpt>
      <trkpt lat="45.89478" lon="2.84409">
        <ele>737</ele>
        <time>2015-10-17T14:37:25Z</time>
      </trkpt>
      <trkpt lat="45.89476" lon="2.84391">
        <ele>737</ele>
        <time>2015-10-17T14:39:25Z</time>
      </trkpt>
      <trkpt lat="45.8947" lon="2.84374">
        <ele>736</ele>
        <time>2015-10-17T14:41:25Z</time>
      </trkpt>
      <trkpt lat="45.89467" lon="2.84342">
        <ele>735</ele>
        <time>2015-10-17T14:43:25Z</time>
      </trkpt>
      <trkpt lat="45.89464" lon="2.84311">
        <ele>735</ele>
        <time>2015-10-17T14:45:25Z</time>
      </trkpt>
      <trkpt lat="45.89462" lon="2.84285">
        <ele>736</ele>
        <time>2015-10-17T14:47:25Z</time>
      </trkpt>
      <trkpt lat="45.89458" lon="2.84255">
        <ele>736</ele>
        <time>2015-10-17T14:49:25Z</time>
      </trkpt>
      <trkpt lat="45.89453" lon="2.84226">
        <ele>736</ele>
        <time>2015-10-17T14:51:25Z</time>
      </trkpt>
      <trkpt lat="45.8945" lon="2.84192">
        <ele>736</ele>
        <time>2015-10-17T14:53:25Z</time>
      </trkpt>
      <trkpt lat="45.89444" lon="2.84166">
        <ele>736</ele>
        <time>2015-10-17T14:55:25Z</time>
      </trkpt>
      <trkpt lat="45.89437" lon="2.84141">
        <ele>736</ele>
        <time>2015-10-17T14:57:25Z</time>
      </trkpt>
      <trkpt lat="45.89431" lon="2.84122">
        <ele>736</ele>
        <time>2015-10-17T14:59:25Z</time>
      </trkpt>
      <trkpt lat="45.89425" lon="2.84105">
        <ele>735</ele>
        <time>2015-10-17T15:01:25Z</time>
      </trkpt>
      <trkpt lat="45.8942" lon="2.84086">
        <ele>735</ele>
        <time>2015-10-17T15:03:25Z</time>
      </trkpt>
      <trkpt lat="45.89412" lon="2.84071">
        <ele>734</ele>
        <time>2015-10-17T15:05:25Z</time>
      </trkpt>
      <trkpt lat="45.89402" lon="2.84053">
        <ele>733</ele>
        <time>2015-10-17T15:07:25Z</time>
      </trkpt>
      <trkpt lat="45.8939" lon="2.84037">
        <ele>731</ele>
        <time>2015-10-17T15:09:25Z</time>
      </trkpt>
      <trkpt lat="45.89381" lon="2.84011">
        <ele>729</ele>
        <time>2015-10-17T15:11:25Z</time>
      </trkpt>
      <trkpt lat="45.89369" lon="2.83997">
        <ele>727</ele>
        <time>2015-10-17T15:13:25Z</time>
      </trkpt>
      <trkpt lat="45.89358" lon="2.83983">
        <ele>725</ele>
        <time>2015-10-17T15:15:25Z</time>
      </trkpt>
      <trkpt lat="45.89346" lon="2.83968">
        <ele>724</ele>
        <time>2015-10-17T15:17:25Z</time>
      </trkpt>
      <trkpt lat="45.89334" lon="2.83953">
        <ele>723</ele>
        <time>2015-10-17T15:19:25Z</time>
      </trkpt>
      <trkpt lat="45.8932" lon="2.83942">
        <ele>721</ele>
        <time>2015-10-17T15:21:25Z</time>
      </trkpt>
      <trkpt lat="45.89305" lon="2.83921">
        <ele>718</ele>
        <time>2015-10-17T15:23:25Z</time>
      </trkpt>
      <trkpt lat="45.8929" lon="2.839">
        <ele>716</ele>
        <time>2015-10-17T15:25:25Z</time>
      </trkpt>
      <trkpt lat="45.89281" lon="2.83888">
        <ele>714</ele>
        <time>2015-10-17T15:27:25Z</time>
      </trkpt>
      <trkpt lat="45.89268" lon="2.8387">
        <ele>713</ele>
        <time>2015-10-17T15:29:25Z</time>
      </trkpt>
      <trkpt lat="45.89256" lon="2.83849">
        <ele>712</ele>
        <time>2015-10-17T15:31:25Z</time>
      </trkpt>
      <trkpt lat="45.89246" lon="2.83828">
        <ele>711</ele>
        <time>2015-10-17T15:33:25Z</time>
      </trkpt>
      <trkpt lat="45.8924" lon="2.83802">
        <ele>708</ele>
        <time>2015-10-17T15:35:25Z</time>
      </trkpt>
      <trkpt lat="45.89231" lon="2.8377">
        <ele>704</ele>
        <time>2015-10-17T15:37:25Z</time>
      </trkpt>
      <trkpt lat="45.89222" lon="2.83702">
        <ele>696</ele>
        <time>2015-10-17T15:39:25Z</time>
      </trkpt>
      <trkpt lat="45.89239" lon="2.83687">
        <ele>695</ele>
        <time>2015-10-17T15:41:25Z</time>
      </trkpt>
      <trkpt lat="45.89251" lon="2.83681">
        <ele>696</ele>
        <time>2015-10-17T15:43:25Z</time>
      </trkpt>
      <trkpt lat="45.8926" lon="2.83671">
        <ele>695</ele>
        <time>2015-10-17T15:45:25Z</time>
      </trkpt>
      <trkpt lat="45.89268" lon="2.83659">
        <ele>693</ele>
        <time>2015-10-17T15:47:25Z</time>
      </trkpt>
      <trkpt lat="45.89287" lon="2.83637">
        <ele>688</ele>
        <time>2015-10-17T15:49:25Z</time>
      </trkpt>
      <trkpt lat="45.893" lon="2.83625">
        <ele>686</ele>
        <time>2015-10-17T15:51:25Z</time>
      </trkpt>
      <trkpt lat="45.89328" lon="2.83615">
        <ele>685</ele>
        <time>2015-10-17T15:53:25Z</time>
      </trkpt>
      <trkpt lat="45.89344" lon="2.83608">
        <ele>683</ele>
        <time>2015-10-17T15:55:25Z</time>
      </trkpt>
      <trkpt lat="45.89357" lon="2.83604">
        <ele>682</ele>
        <time>2015-10-17T15:57:25Z</time>
      </trkpt>
      <trkpt lat="45.89374" lon="2.83593">
        <ele>679</ele>
        <time>2015-10-17T15:59:25Z</time>
      </trkpt>
      <trkpt lat="45.8939" lon="2.83579">
        <ele>676</ele>
        <time>2015-10-17T16:01:25Z</time>
      </trkpt>
      <trkpt lat="45.89408" lon="2.83571">
        <ele>676</ele>
        <time>2015-10-17T16:03:25Z</time>
      </trkpt>
      <trkpt lat="45.89427" lon="2.83574">
        <ele>675</ele>
        <time>2015-10-17T16:05:25Z</time>
      </trkpt>
      <trkpt lat="45.89442" lon="2.83573">
        <ele>674</ele>
        <time>2015-10-17T16:07:25Z</time>
      </trkpt>
      <trkpt lat="45.89454" lon="2.83575">
        <ele>674</ele>
        <time>2015-10-17T16:09:25Z</time>
      </trkpt>
      <trkpt lat="45.89458" lon="2.83561">
        <ele>674</ele>
        <time>2015-10-17T16:11:25Z</time>
      </trkpt>
      <trkpt lat="45.89449" lon="2.83551">
        <ele>674</ele>
        <time>2015-10-17T16:13:25Z</time>
      </trkpt>
      <trkpt lat="45.89442" lon="2.83539">
        <ele>675</ele>
        <time>2015-10-17T16:15:25Z</time>
      </trkpt>
      <trkpt lat="45.89442" lon="2.83521">
        <ele>675</ele>
        <time>2015-10-17T16:17:25Z</time>
      </trkpt>
      <trkpt lat="45.89449" lon="2.83507">
        <ele>676</ele>
        <time>2015-10-17T16:19:25Z</time>
      </trkpt>
      <trkpt lat="45.89464" lon="2.83505">
        <ele>677</ele>
        <time>2015-10-17T16:21:25Z</time>
      </trkpt>
      <trkpt lat="45.89478" lon="2.83517">
        <ele>677</ele>
        <time>2015-10-17T16:23:25Z</time>
      </trkpt>
      <trkpt lat="45.89488" lon="2.83524">
        <ele>677</ele>
        <time>2015-10-17T16:25:25Z</time>
      </trkpt>
      <trkpt lat="45.89505" lon="2.83534">
        <ele>676</ele>
        <time>2015-10-17T16:27:25Z</time>
      </trkpt>
      <trkpt lat="45.8953" lon="2.83539">
        <ele>678</ele>
        <time>2015-10-17T16:29:25Z</time>
      </trkpt>
      <trkpt lat="45.89545" lon="2.83541">
        <ele>680</ele>
        <time>2015-10-17T16:31:25Z</time>
      </trkpt>
      <trkpt lat="45.89557" lon="2.83545">
        <ele>680</ele>
        <time>2015-10-17T16:33:25Z</time>
      </trkpt>
      <trkpt lat="45.89584" lon="2.8354">
        <ele>684</ele>
        <time>2015-10-17T16:35:25Z</time>
      </trkpt>
      <trkpt lat="45.89582" lon="2.83526">
        <ele>686</ele>
        <time>2015-10-17T16:37:25Z</time>
      </trkpt>
      <trkpt lat="45.89573" lon="2.83516">
        <ele>686</ele>
        <time>2015-10-17T16:39:25Z</time>
      </trkpt>
      <trkpt lat="45.89564" lon="2.83504">
        <ele>687</ele>
        <time>2015-10-17T16:41:25Z</time>
      </trkpt>
      <trkpt lat="45.89543" lon="2.8348">
        <ele>690</ele>
        <time>2015-10-17T16:43:25Z</time>
      </trkpt>
      <trkpt lat="45.89523" lon="2.8346">
        <ele>692</ele>
        <time>2015-10-17T16:45:25Z</time>
      </trkpt>
      <trkpt lat="45.89508" lon="2.83444">
        <ele>694</ele>
        <time>2015-10-17T16:47:25Z</time>
      </trkpt>
      <trkpt lat="45.8949" lon="2.83432">
        <ele>695</ele>
        <time>2015-10-17T16:49:25Z</time>
      </trkpt>
      <trkpt lat="45.89479" lon="2.83404">
        <ele>699</ele>
        <time>2015-10-17T16:51:25Z</time>
      </trkpt>
      <trkpt lat="45.89467" lon="2.83385">
        <ele>701</ele>
        <time>2015-10-17T16:53:25Z</time>
      </trkpt>
      <trkpt lat="45.89458" lon="2.8336">
        <ele>703</ele>
        <time>2015-10-17T16:55:25Z</time>
      </trkpt>
      <trkpt lat="45.89444" lon="2.83333">
        <ele>706</ele>
        <time>2015-10-17T16:57:25Z</time>
      </trkpt>
      <trkpt lat="45.89431" lon="2.83318">
        <ele>706</ele>
        <time>2015-10-17T16:59:25Z</time>
      </trkpt>
      <trkpt lat="45.8942" lon="2.83294">
        <ele>708</ele>
        <time>2015-10-17T17:01:25Z</time>
      </trkpt>
      <trkpt lat="45.89405" lon="2.83274">
        <ele>711</ele>
        <time>2015-10-17T17:03:25Z</time>
      </trkpt>
      <trkpt lat="45.8939" lon="2.83253">
        <ele>713</ele>
        <time>2015-10-17T17:05:25Z</time>
      </trkpt>
      <trkpt lat="45.89378" lon="2.83242">
        <ele>714</ele>
        <time>2015-10-17T17:07:25Z</time>
      </trkpt>
      <trkpt lat="45.89362" lon="2.83229">
        <ele>714</ele>
        <time>2015-10-17T17:09:25Z</time>
      </trkpt>
      <trkpt lat="45.8935" lon="2.83205">
        <ele>715</ele>
        <time>2015-10-17T17:11:25Z</time>
      </trkpt>
      <trkpt lat="45.89341" lon="2.83191">
        <ele>715</ele>
        <time>2015-10-17T17:13:25Z</time>
      </trkpt>
      <trkpt lat="45.89336" lon="2.83169">
        <ele>715</ele>
        <time>2015-10-17T17:15:25Z</time>
      </trkpt>
      <trkpt lat="45.89329" lon="2.8315">
        <ele>715</ele>
        <time>2015-10-17T17:17:25Z</time>
      </trkpt>
      <trkpt lat="45.89324" lon="2.83127">
        <ele>715</ele>
        <time>2015-10-17T17:19:25Z</time>
      </trkpt>
      <trkpt lat="45.89322" lon="2.83107">
        <ele>715</ele>
        <time>2015-10-17T17:21:25Z</time>
      </trkpt>
      <trkpt lat="45.89319" lon="2.83084">
        <ele>715</ele>
        <time>2015-10-17T17:23:25Z</time>
      </trkpt>
      <trkpt lat="45.89318" lon="2.83057">
        <ele>715</ele>
        <time>2015-10-17T17:25:25Z</time>
      </trkpt>
      <trkpt lat="45.89319" lon="2.83036">
        <ele>716</ele>
        <time>2015-10-17T17:27:25Z</time>
      </trkpt>
      <trkpt lat="45.89324" lon="2.8302">
        <ele>717</ele>
        <time>2015-10-17T17:29:25Z</time>
      </trkpt>
      <trkpt lat="45.89325" lon="2.83002">
        <ele>717</ele>
        <time>2015-10-17T17:31:25Z</time>
      </trkpt>
      <trkpt lat="45.8932" lon="2.82975">
        <ele>716</ele>
        <time>2015-10-17T17:33:25Z</time>
      </trkpt>
      <trkpt lat="45.89316" lon="2.8295">
        <ele>715</ele>
        <time>2015-10-17T17:35:25Z</time>
      </trkpt>
      <trkpt lat="45.89316" lon="2.82925">
        <ele>715</ele>
        <time>2015-10-17T17:37:25Z</time>
      </trkpt>
      <trkpt lat="45.89321" lon="2.82901">
        <ele>715</ele>
        <time>2015-10-17T17:39:25Z</time>
      </trkpt>
      <trkpt lat="45.89325" lon="2.82878">
        <ele>715</ele>
        <time>2015-10-17T17:41:25Z</time>
      </trkpt>
      <trkpt lat="45.89331" lon="2.82861">
        <ele>715</ele>
        <time>2015-10-17T17:43:25Z</time>
      </trkpt>
      <trkpt lat="45.89334" lon="2.82838">
        <ele>715</ele>
        <time>2015-10-17T17:45:25Z</time>
      </trkpt>
      <trkpt lat="45.89335" lon="2.82804">
        <ele>715</ele>
        <time>2015-10-17T17:47:25Z</time>
      </trkpt>
      <trkpt lat="45.89339" lon="2.82779">
        <ele>714</ele>
        <time>2015-10-17T17:49:25Z</time>
      </trkpt>
      <trkpt lat="45.8934" lon="2.827">
        <ele>716</ele>
        <time>2015-10-17T17:51:25Z</time>
      </trkpt>
      <trkpt lat="45.89341" lon="2.82638">
        <ele>717</ele>
        <time>2015-10-17T17:53:25Z</time>
      </trkpt>
      <trkpt lat="45.89352" lon="2.82637">
        <ele>717</ele>
        <time>2015-10-17T17:55:25Z</time>
      </trkpt>
      <trkpt lat="45.89361" lon="2.8264">
        <ele>717</ele>
        <time>2015-10-17T17:57:25Z</time>
      </trkpt>
      <trkpt lat="45.89381" lon="2.82621">
        <ele>716</ele>
        <time>2015-10-17T17:59:25Z</time>
      </trkpt>
      <trkpt lat="45.894" lon="2.82611">
        <ele>715</ele>
        <time>2015-10-17T18:01:25Z</time>
      </trkpt>
      <trkpt lat="45.89415" lon="2.82602">
        <ele>715</ele>
        <time>2015-10-17T18:03:25Z</time>
      </trkpt>
      <trkpt lat="45.89431" lon="2.82603">
        <ele>714</ele>
        <time>2015-10-17T18:05:25Z</time>
      </trkpt>
      <trkpt lat="45.89467" lon="2.8262">
        <ele>713</ele>
        <time>2015-10-17T18:07:25Z</time>
      </trkpt>
      <trkpt lat="45.89479" lon="2.82625">
        <ele>713</ele>
        <time>2015-10-17T18:09:25Z</time>
      </trkpt>
      <trkpt lat="45.89503" lon="2.82627">
        <ele>712</ele>
        <time>2015-10-17T18:11:25Z</time>
      </trkpt>
      <trkpt lat="45.89525" lon="2.82622">
        <ele>712</ele>
        <time>2015-10-17T18:13:25Z</time>
      </trkpt>
      <trkpt lat="45.8954" lon="2.82613">
        <ele>712</ele>
        <time>2015-10-17T18:15:25Z</time>
      </trkpt>
      <trkpt lat="45.89561" lon="2.82606">
        <ele>712</ele>
        <time>2015-10-17T18:17:25Z</time>
      </trkpt>
      <trkpt lat="45.89587" lon="2.82587">
        <ele>711</ele>
        <time>2015-10-17T18:19:25Z</time>
      </trkpt>
      <trkpt lat="45.89605" lon="2.82573">
        <ele>710</ele>
        <time>2015-10-17T18:21:25Z</time>
      </trkpt>
      <trkpt lat="45.89626" lon="2.82564">
        <ele>708</ele>
        <time>2015-10-17T18:23:25Z</time>
      </trkpt>
      <trkpt lat="45.8965" lon="2.82558">
        <ele>707</ele>
        <time>2015-10-17T18:25:25Z</time>
      </trkpt>
      <trkpt lat="45.89668" lon="2.82553">
        <ele>706</ele>
        <time>2015-10-17T18:27:25Z</time>
      </trkpt>
      <trkpt lat="45.89683" lon="2.82546">
        <ele>706</ele>
        <time>2015-10-17T18:29:25Z</time>
      </trkpt>
      <trkpt lat="45.89695" lon="2.82535">
        <ele>706</ele>
        <time>2015-10-17T18:31:25Z</time>
      </trkpt>
      <trkpt lat="45.89708" lon="2.82527">
        <ele>706</ele>
        <time>2015-10-17T18:33:25Z</time>
      </trkpt>
      <trkpt lat="45.89745" lon="2.82519">
        <ele>706</ele>
        <time>2015-10-17T18:35:25Z</time>
      </trkpt>
      <trkpt lat="45.89758" lon="2.82516">
        <ele>706</ele>
        <time>2015-10-17T18:37:25Z</time>
      </trkpt>
      <trkpt lat="45.8978" lon="2.82515">
        <ele>705</ele>
        <time>2015-10-17T18:39:25Z</time>
      </trkpt>
      <trkpt lat="45.89803" lon="2.82505">
        <ele>705</ele>
        <time>2015-10-17T18:41:25Z</time>
      </trkpt>
      <trkpt lat="45.89809" lon="2.82462">
        <ele>705</ele>
        <time>2015-10-17T18:43:25Z</time>
      </trkpt>
      <trkpt lat="45.89815" lon="2.8243">
        <ele>706</ele>
        <time>2015-10-17T18:45:25Z</time>
      </trkpt>
      <trkpt lat="45.89823" lon="2.82363">
        <ele>708</ele>
        <time>2015-10-17T18:47:25Z</time>
      </trkpt>
      <trkpt lat="45.89829" lon="2.82319">
        <ele>709</ele>
        <time>2015-10-17T18:49:25Z</time>
      </trkpt>
      <trkpt lat="45.8984" lon="2.82278">
        <ele>708</ele>
        <time>2015-10-17T18:51:25Z</time>
      </trkpt>
      <trkpt lat="45.89852" lon="2.82239">
        <ele>706</ele>
        <time>2015-10-17T18:53:25Z</time>
      </trkpt>
      <trkpt lat="45.89863" lon="2.82197">
        <ele>705</ele>
        <time>2015-10-17T18:55:25Z</time>
      </trkpt>
      <trkpt lat="45.89876" lon="2.8214">
        <ele>704</ele>
        <time>2015-10-17T18:57:25Z</time>
      </trkpt>
      <trkpt lat="45.89879" lon="2.82112">
        <ele>703</ele>
        <time>2015-10-17T18:59:25Z</time>
      </trkpt>
      <trkpt lat="45.89912" lon="2.82126">
        <ele>703</ele>
        <time>2015-10-17T19:01:25Z</time>
      </trkpt>
      <trkpt lat="45.89938" lon="2.8214">
        <ele>701</ele>
        <time>2015-10-17T19:03:25Z</time>
      </trkpt>
      <trkpt lat="45.89959" lon="2.82159">
        <ele>699</ele>
        <time>2015-10-17T19:05:25Z</time>
      </trkpt>
      <trkpt lat="45.89972" lon="2.82172">
        <ele>698</ele>
        <time>2015-10-17T19:07:25Z</time>
      </trkpt>
      <trkpt lat="45.89997" lon="2.82195">
        <ele>696</ele>
        <time>2015-10-17T19:09:25Z</time>
      </trkpt>
      <trkpt lat="45.90013" lon="2.82205">
        <ele>695</ele>
        <time>2015-10-17T19:11:25Z</time>
      </trkpt>
      <trkpt lat="45.90033" lon="2.82221">
        <ele>694</ele>
        <time>2015-10-17T19:13:25Z</time>
      </trkpt>
      <trkpt lat="45.90049" lon="2.82231">
        <ele>693</ele>
        <time>2015-10-17T19:15:25Z</time>
      </trkpt>
      <trkpt lat="45.90089" lon="2.82253">
        <ele>692</ele>
        <time>2015-10-17T19:17:25Z</time>
      </trkpt>
      <trkpt lat="45.90113" lon="2.82266">
        <ele>691</ele>
        <time>2015-10-17T19:19:25Z</time>
      </trkpt>
      <trkpt lat="45.90132" lon="2.82284">
        <ele>690</ele>
        <time>2015-10-17T19:21:25Z</time>
      </trkpt>
      <trkpt lat="45.90148" lon="2.823">
        <ele>689</ele>
        <time>2015-10-17T19:23:25Z</time>
      </trkpt>
      <trkpt lat="45.90159" lon="2.82317">
        <ele>687</ele>
        <time>2015-10-17T19:25:25Z</time>
      </trkpt>
      <trkpt lat="45.90178" lon="2.82333">
        <ele>684</ele>
        <time>2015-10-17T19:27:25Z</time>
      </trkpt>
      <trkpt lat="45.90186" lon="2.82347">
        <ele>681</ele>
        <time>2015-10-17T19:29:25Z</time>
      </trkpt>
      <trkpt lat="45.90201" lon="2.82355">
        <ele>678</ele>
        <time>2015-10-17T19:31:25Z</time>
      </trkpt>
      <trkpt lat="45.90217" lon="2.82355">
        <ele>676</ele>
        <time>2015-10-17T19:33:25Z</time>
      </trkpt>
      <trkpt lat="45.90227" lon="2.82349">
        <ele>675</ele>
        <time>2015-10-17T19:35:25Z</time>
      </trkpt>
      <trkpt lat="45.90237" lon="2.82338">
        <ele>674</ele>
        <time>2015-10-17T19:37:25Z</time>
      </trkpt>
      <trkpt lat="45.9024" lon="2.82319">
        <ele>675</ele>
        <time>2015-10-17T19:39:25Z</time>
      </trkpt>
      <trkpt lat="45.90242" lon="2.8229">
        <ele>676</ele>
        <time>2015-10-17T19:41:25Z</time>
      </trkpt>
      <trkpt lat="45.90245" lon="2.82172">
        <ele>672</ele>
        <time>2015-10-17T19:43:25Z</time>
      </trkpt>
      <trkpt lat="45.90248" lon="2.82137">
        <ele>665</ele>
        <time>2015-10-17T19:45:25Z</time>
      </trkpt>
      <trkpt lat="45.90247" lon="2.82123">
        <ele>662</ele>
        <time>2015-10-17T19:47:25Z</time>
      </trkpt>
      <trkpt lat="45.90238" lon="2.82111">
        <ele>661</ele>
        <time>2015-10-17T19:49:25Z</time>
      </trkpt>
      <trkpt lat="45.90203" lon="2.82105">
        <ele>669</ele>
        <time>2015-10-17T19:51:25Z</time>
      </trkpt>
      <trkpt lat="45.90189" lon="2.82092">
        <ele>670</ele>
        <time>2015-10-17T19:53:25Z</time>
      </trkpt>
      <trkpt lat="45.90171" lon="2.82079">
        <ele>673</ele>
        <time>2015-10-17T19:55:25Z</time>
      </trkpt>
      <trkpt lat="45.90172" lon="2.82063">
        <ele>673</ele>
        <time>2015-10-17T19:57:25Z</time>
      </trkpt>
      <trkpt lat="45.90186" lon="2.82053">
        <ele>669</ele>
        <time>2015-10-17T19:59:25Z</time>
      </trkpt>
      <trkpt lat="45.90199" lon="2.82039">
        <ele>665</ele>
        <time>2015-10-17T20:01:25Z</time>
      </trkpt>
      <trkpt lat="45.90211" lon="2.82018">
        <ele>661</ele>
        <time>2015-10-17T20:03:25Z</time>
      </trkpt>
      <trkpt lat="45.90217" lon="2.81993">
        <ele>658</ele>
        <time>2015-10-17T20:05:25Z</time>
      </trkpt>
      <trkpt lat="45.90218" lon="2.81971">
        <ele>658</ele>
        <time>2015-10-17T20:07:25Z</time>
      </trkpt>
      <trkpt lat="45.90213" lon="2.81948">
        <ele>659</ele>
        <time>2015-10-17T20:09:25Z</time>
      </trkpt>
      <trkpt lat="45.90208" lon="2.81928">
        <ele>661</ele>
        <time>2015-10-17T20:11:25Z</time>
      </trkpt>
      <trkpt lat="45.90204" lon="2.81906">
        <ele>662</ele>
        <time>2015-10-17T20:13:25Z</time>
      </trkpt>
      <trkpt lat="45.90197" lon="2.81885">
        <ele>664</ele>
        <time>2015-10-17T20:15:25Z</time>
      </trkpt>
      <trkpt lat="45.90187" lon="2.81871">
        <ele>668</ele>
        <time>2015-10-17T20:17:25Z</time>
      </trkpt>
      <trkpt lat="45.9018" lon="2.81852">
        <ele>670</ele>
        <time>2015-10-17T20:19:25Z</time>
      </trkpt>
      <trkpt lat="45.90183" lon="2.81838">
        <ele>668</ele>
        <time>2015-10-17T20:21:25Z</time>
      </trkpt>
      <trkpt lat="45.90195" lon="2.8183">
        <ele>663</ele>
        <time>2015-10-17T20:23:25Z</time>
      </trkpt>
      <trkpt lat="45.90211" lon="2.81808">
        <ele>657</ele>
        <time>2015-10-17T20:25:25Z</time>
      </trkpt>
      <trkpt lat="45.90215" lon="2.81786">
        <ele>655</ele>
        <time>2015-10-17T20:27:25Z</time>
      </trkpt>
      <trkpt lat="45.90212" lon="2.81758">
        <ele>657</ele>
        <time>2015-10-17T20:29:25Z</time>
      </trkpt>
      <trkpt lat="45.90206" lon="2.81737">
        <ele>658</ele>
        <time>2015-10-17T20:31:25Z</time>
      </trkpt>
      <trkpt lat="45.902" lon="2.81712">
        <ele>659</ele>
        <time>2015-10-17T20:33:25Z</time>
      </trkpt>
      <trkpt lat="45.90195" lon="2.81695">
        <ele>660</ele>
        <time>2015-10-17T20:35:25Z</time>
      </trkpt>
      <trkpt lat="45.90195" lon="2.81676">
        <ele>659</ele>
        <time>2015-10-17T20:37:25Z</time>
      </trkpt>
      <trkpt lat="45.90198" lon="2.81651">
        <ele>656</ele>
        <time>2015-10-17T20:39:25Z</time>
      </trkpt>
      <trkpt lat="45.90194" lon="2.81627">
        <ele>655</ele>
        <time>2015-10-17T20:41:25Z</time>
      </trkpt>
      <trkpt lat="45.90189" lon="2.81616">
        <ele>655</ele>
        <time>2015-10-17T20:43:25Z</time>
      </trkpt>
      <trkpt lat="45.90186" lon="2.81598">
        <ele>654</ele>
        <time>2015-10-17T20:45:25Z</time>
      </trkpt>
      <trkpt lat="45.90172" lon="2.81586">
        <ele>658</ele>
        <time>2015-10-17T20:47:25Z</time>
      </trkpt>
      <trkpt lat="45.9016" lon="2.81579">
        <ele>662</ele>
        <time>2015-10-17T20:49:25Z</time>
      </trkpt>
      <trkpt lat="45.90152" lon="2.81568">
        <ele>665</ele>
        <time>2015-10-17T20:51:25Z</time>
      </trkpt>
      <trkpt lat="45.90154" lon="2.81553">
        <ele>665</ele>
        <time>2015-10-17T20:53:25Z</time>
      </trkpt>
      <trkpt lat="45.90166" lon="2.81537">
        <ele>662</ele>
        <time>2015-10-17T20:55:25Z</time>
      </trkpt>
      <trkpt lat="45.90172" lon="2.8152">
        <ele>660</ele>
        <time>2015-10-17T20:57:25Z</time>
      </trkpt>
      <trkpt lat="45.90177" lon="2.81501">
        <ele>659</ele>
        <time>2015-10-17T20:59:25Z</time>
      </trkpt>
      <trkpt lat="45.90176" lon="2.81482">
        <ele>661</ele>
        <time>2015-10-17T21:01:25Z</time>
      </trkpt>
      <trkpt lat="45.90173" lon="2.81465">
        <ele>664</ele>
        <time>2015-10-17T21:03:25Z</time>
      </trkpt>
      <trkpt lat="45.90164" lon="2.81451">
        <ele>669</ele>
        <time>2015-10-17T21:05:25Z</time>
      </trkpt>
      <trkpt lat="45.90158" lon="2.81438">
        <ele>672</ele>
        <time>2015-10-17T21:07:25Z</time>
      </trkpt>
      <trkpt lat="45.90162" lon="2.81421">
        <ele>672</ele>
        <time>2015-10-17T21:09:25Z</time>
      </trkpt>
      <trkpt lat="45.90169" lon="2.81406">
        <ele>672</ele>
        <time>2015-10-17T21:11:25Z</time>
      </trkpt>
      <trkpt lat="45.9018" lon="2.81396">
        <ele>667</ele>
        <time>2015-10-17T21:13:25Z</time>
      </trkpt>
      <trkpt lat="45.90193" lon="2.8137">
        <ele>663</ele>
        <time>2015-10-17T21:15:25Z</time>
      </trkpt>
      <trkpt lat="45.90197" lon="2.81353">
        <ele>662</ele>
        <time>2015-10-17T21:17:25Z</time>
      </trkpt>
      <trkpt lat="45.90193" lon="2.81335">
        <ele>666</ele>
        <time>2015-10-17T21:19:25Z</time>
      </trkpt>
      <trkpt lat="45.90189" lon="2.81309">
        <ele>672</ele>
        <time>2015-10-17T21:21:25Z</time>
      </trkpt>
      <trkpt lat="45.90183" lon="2.81277">
        <ele>679</ele>
        <time>2015-10-17T21:23:25Z</time>
      </trkpt>
      <trkpt lat="45.90186" lon="2.81257">
        <ele>680</ele>
        <time>2015-10-17T21:25:25Z</time>
      </trkpt>
      <trkpt lat="45.90187" lon="2.81237">
        <ele>683</ele>
        <time>2015-10-17T21:27:25Z</time>
      </trkpt>
      <trkpt lat="45.90189" lon="2.81206">
        <ele>688</ele>
        <time>2015-10-17T21:29:25Z</time>
      </trkpt>
      <trkpt lat="45.90186" lon="2.81163">
        <ele>696</ele>
        <time>2015-10-17T21:31:25Z</time>
      </trkpt>
      <trkpt lat="45.90183" lon="2.81144">
        <ele>699</ele>
        <time>2015-10-17T21:33:25Z</time>
      </trkpt>
      <trkpt lat="45.90174" lon="2.8113">
        <ele>702</ele>
        <time>2015-10-17T21:35:25Z</time>
      </trkpt>
      <trkpt lat="45.90167" lon="2.8111">
        <ele>705</ele>
        <time>2015-10-17T21:37:25Z</time>
      </trkpt>
      <trkpt lat="45.90153" lon="2.81111">
        <ele>705</ele>
        <time>2015-10-17T21:39:25Z</time>
      </trkpt>
      <trkpt lat="45.90136" lon="2.8111">
        <ele>704</ele>
        <time>2015-10-17T21:41:25Z</time>
      </trkpt>
      <trkpt lat="45.90119" lon="2.81109">
        <ele>703</ele>
        <time>2015-10-17T21:43:25Z</time>
      </trkpt>
      <trkpt lat="45.90105" lon="2.8112">
        <ele>702</ele>
        <time>2015-10-17T21:45:25Z</time>
      </trkpt>
      <trkpt lat="45.90077" lon="2.81163">
        <ele>700</ele>
        <time>2015-10-17T21:47:25Z</time>
      </trkpt>
      <trkpt lat="45.90056" lon="2.81183">
        <ele>698</ele>
        <time>2015-10-17T21:49:25Z</time>
      </trkpt>
      <trkpt lat="45.90036" lon="2.81215">
        <ele>695</ele>
        <time>2015-10-17T21:51:25Z</time>
      </trkpt>
      <trkpt lat="45.90018" lon="2.81238">
        <ele>694</ele>
        <time>2015-10-17T21:53:25Z</time>
      </trkpt>
      <trkpt lat="45.89999" lon="2.81263">
        <ele>693</ele>
        <time>2015-10-17T21:55:25Z</time>
      </trkpt>
      <trkpt lat="45.89982" lon="2.8122">
        <ele>693</ele>
        <time>2015-10-17T21:57:25Z</time>
      </trkpt>
      <trkpt lat="45.89969" lon="2.81188">
        <ele>692</ele>
        <time>2015-10-17T21:59:25Z</time>
      </trkpt>
      <trkpt lat="45.89959" lon="2.81153">
        <ele>692</ele>
        <time>2015-10-17T22:01:25Z</time>
      </trkpt>
      <trkpt lat="45.89952" lon="2.81129">
        <ele>691</ele>
        <time>2015-10-17T22:03:25Z</time>
      </trkpt>
      <trkpt lat="45.89943" lon="2.81088">
        <ele>691</ele>
        <time>2015-10-17T22:05:25Z</time>
      </trkpt>
      <trkpt lat="45.89935" lon="2.8106">
        <ele>689</ele>
        <time>2015-10-17T22:07:25Z</time>
      </trkpt>
      <trkpt lat="45.89924" lon="2.81041">
        <ele>687</ele>
        <time>2015-10-17T22:09:25Z</time>
      </trkpt>
      <trkpt lat="45.89909" lon="2.81018">
        <ele>683</ele>
        <time>2015-10-17T22:11:25Z</time>
      </trkpt>
      <trkpt lat="45.899" lon="2.80998">
        <ele>681</ele>
        <time>2015-10-17T22:13:25Z</time>
      </trkpt>
      <trkpt lat="45.89894" lon="2.80979">
        <ele>678</ele>
        <time>2015-10-17T22:15:25Z</time>
      </trkpt>
      <trkpt lat="45.89892" lon="2.80953">
        <ele>677</ele>
        <time>2015-10-17T22:17:25Z</time>
      </trkpt>
      <trkpt lat="45.899" lon="2.80918">
        <ele>677</ele>
        <time>2015-10-17T22:19:25Z</time>
      </trkpt>
      <trkpt lat="45.89922" lon="2.80853">
        <ele>671</ele>
        <time>2015-10-17T22:21:25Z</time>
      </trkpt>
      <trkpt lat="45.89944" lon="2.80786">
        <ele>664</ele>
        <time>2015-10-17T22:23:25Z</time>
      </trkpt>
      <trkpt lat="45.89952" lon="2.80768">
        <ele>663</ele>
        <time>2015-10-17T22:25:25Z</time>
      </trkpt>
      <trkpt lat="45.89965" lon="2.80757">
        <ele>664</ele>
        <time>2015-10-17T22:27:25Z</time>
      </trkpt>
      <trkpt lat="45.89983" lon="2.8075">
        <ele>668</ele>
        <time>2015-10-17T22:29:25Z</time>
      </trkpt>
      <trkpt lat="45.89994" lon="2.80748">
        <ele>670</ele>
        <time>2015-10-17T22:31:25Z</time>
      </trkpt>
      <trkpt lat="45.89999" lon="2.80732">
        <ele>670</ele>
        <time>2015-10-17T22:33:25Z</time>
      </trkpt>
      <trkpt lat="45.89999" lon="2.80714">
        <ele>669</ele>
        <time>2015-10-17T22:35:25Z</time>
      </trkpt>
      <trkpt lat="45.89991" lon="2.807">
        <ele>666</ele>
        <time>2015-10-17T22:37:25Z</time>
      </trkpt>
      <trkpt lat="45.89981" lon="2.8068">
        <ele>661</ele>
        <time>2015-10-17T22:39:25Z</time>
      </trkpt>
      <trkpt lat="45.89965" lon="2.80655">
        <ele>654</ele>
        <time>2015-10-17T22:41:25Z</time>
      </trkpt>
      <trkpt lat="45.89957" lon="2.80635">
        <ele>651</ele>
        <time>2015-10-17T22:43:25Z</time>
      </trkpt>
      <trkpt lat="45.89943" lon="2.80594">
        <ele>645</ele>
        <time>2015-10-17T22:45:25Z</time>
      </trkpt>
      <trkpt lat="45.89935" lon="2.80574">
        <ele>641</ele>
        <time>2015-10-17T22:47:25Z</time>
      </trkpt>
      <trkpt lat="45.89921" lon="2.80511">
        <ele>636</ele>
        <time>2015-10-17T22:49:25Z</time>
      </trkpt>
      <trkpt lat="45.89915" lon="2.8045">
        <ele>635</ele>
        <time>2015-10-17T22:51:25Z</time>
      </trkpt>
      <trkpt lat="45.89907" lon="2.80422">
        <ele>632</ele>
        <time>2015-10-17T22:53:25Z</time>
      </trkpt>
      <trkpt lat="45.89897" lon="2.80368">
        <ele>625</ele>
        <time>2015-10-17T22:55:25Z</time>
      </trkpt>
      <trkpt lat="45.89907" lon="2.80297">
        <ele>618</ele>
        <time>2015-10-17T22:57:25Z</time>
      </trkpt>
      <trkpt lat="45.89919" lon="2.8027">
        <ele>615</ele>
        <time>2015-10-17T22:59:25Z</time>
      </trkpt>
      <trkpt lat="45.89938" lon="2.80259">
        <ele>615</ele>
        <time>2015-10-17T23:01:25Z</time>
      </trkpt>
      <trkpt lat="45.89955" lon="2.80251">
        <ele>616</ele>
        <time>2015-10-17T23:03:25Z</time>
      </trkpt>
      <trkpt lat="45.89984" lon="2.80236">
        <ele>616</ele>
        <time>2015-10-17T23:05:25Z</time>
      </trkpt>
      <trkpt lat="45.90025" lon="2.80206">
        <ele>611</ele>
        <time>2015-10-17T23:07:25Z</time>
      </trkpt>
      <trkpt lat="45.90044" lon="2.80176">
        <ele>603</ele>
        <time>2015-10-17T23:09:25Z</time>
      </trkpt>
      <trkpt lat="45.90074" lon="2.80145">
        <ele>592</ele>
        <time>2015-10-17T23:11:25Z</time>
      </trkpt>
      <trkpt lat="45.90065" lon="2.80132">
        <ele>589</ele>
        <time>2015-10-17T23:13:25Z</time>
      </trkpt>
      <trkpt lat="45.90052" lon="2.80123">
        <ele>587</ele>
        <time>2015-10-17T23:15:25Z</time>
      </trkpt>
      <trkpt lat="45.90026" lon="2.80121">
        <ele>588</ele>
        <time>2015-10-17T23:17:25Z</time>
      </trkpt>
      <trkpt lat="45.90006" lon="2.80133">
        <ele>593</ele>
        <time>2015-10-17T23:19:25Z</time>
      </trkpt>
      <trkpt lat="45.89985" lon="2.80146">
        <ele>596</ele>
        <time>2015-10-17T23:21:25Z</time>
      </trkpt>
      <trkpt lat="45.89968" lon="2.80152">
        <ele>596</ele>
        <time>2015-10-17T23:23:25Z</time>
      </trkpt>
      <trkpt lat="45.89943" lon="2.80143">
        <ele>590</ele>
        <time>2015-10-17T23:25:25Z</time>
      </trkpt>
      <trkpt lat="45.89915" lon="2.80124">
        <ele>582</ele>
        <time>2015-10-17T23:27:25Z</time>
      </trkpt>
      <trkpt lat="45.8993" lon="2.80108">
        <ele>578</ele>
        <time>2015-10-17T23:29:25Z</time>
      </trkpt>
      <trkpt lat="45.89942" lon="2.80104">
        <ele>578</ele>
        <time>2015-10-17T23:31:25Z</time>
      </trkpt>
      <trkpt lat="45.89964" lon="2.80087">
        <ele>574</ele>
        <time>2015-10-17T23:33:25Z</time>
      </trkpt>
      <trkpt lat="45.89977" lon="2.80073">
        <ele>571</ele>
        <time>2015-10-17T23:35:25Z</time>
      </trkpt>
      <trkpt lat="45.89989" lon="2.80058">
        <ele>568</ele>
        <time>2015-10-17T23:37:25Z</time>
      </trkpt>
      <trkpt lat="45.90007" lon="2.80032">
        <ele>561</ele>
        <time>2015-10-17T23:39:25Z</time>
      </trkpt>
      <trkpt lat="45.90019" lon="2.80008">
        <ele>554</ele>
        <time>2015-10-17T23:41:25Z</time>
      </trkpt>
      <trkpt lat="45.90031" lon="2.79998">
        <ele>551</ele>
        <time>2015-10-17T23:43:25Z</time>
      </trkpt>
      <trkpt lat="45.90052" lon="2.79992">
        <ele>549</ele>
        <time>2015-10-17T23:45:25Z</time>
      </trkpt>
      <trkpt lat="45.90079" lon="2.79992">
        <ele>548</ele>
        <time>2015-10-17T23:47:25Z</time>
      </trkpt>
      <trkpt lat="45.90103" lon="2.79993">
        <ele>545</ele>
        <time>2015-10-17T23:49:25Z</time>
      </trkpt>
      <trkpt lat="45.90126" lon="2.79991">
        <ele>541</ele>
        <time>2015-10-17T23:51:25Z</time>
      </trkpt>
      <trkpt lat="45.90147" lon="2.79989">
        <ele>538</ele>
        <time>2015-10-17T23:53:25Z</time>
      </trkpt>
      <trkpt lat="45.90174" lon="2.80001">
        <ele>536</ele>
        <time>2015-10-17T23:55:25Z</time>
      </trkpt>
      <trkpt lat="45.90188" lon="2.80023">
        <ele>540</ele>
        <time>2015-10-17T23:57:25Z</time>
      </trkpt>
      <trkpt lat="45.90204" lon="2.80046">
        <ele>544</ele>
        <time>2015-10-17T23:59:25Z</time>
      </trkpt>
      <trkpt lat="45.90222" lon="2.80062">
        <ele>547</ele>
        <time>2015-10-18T00:01:25Z</time>
      </trkpt>
      <trkpt lat="45.90238" lon="2.8008">
        <ele>549</ele>
        <time>2015-10-18T00:03:25Z</time>
      </trkpt>
      <trkpt lat="45.90269" lon="2.80093">
        <ele>552</ele>
        <time>2015-10-18T00:05:25Z</time>
      </trkpt>
      <trkpt lat="45.90319" lon="2.80118">
        <ele>558</ele>
        <time>2015-10-18T00:07:25Z</time>
      </trkpt>
      <trkpt lat="45.90345" lon="2.80118">
        <ele>559</ele>
        <time>2015-10-18T00:09:25Z</time>
      </trkpt>
      <trkpt lat="45.90371" lon="2.80108">
        <ele>559</ele>
        <time>2015-10-18T00:11:25Z</time>
      </trkpt>
      <trkpt lat="45.90392" lon="2.80101">
        <ele>560</ele>
        <time>2015-10-18T00:13:25Z</time>
      </trkpt>
      <trkpt lat="45.90407" lon="2.80091">
        <ele>558</ele>
        <time>2015-10-18T00:15:25Z</time>
      </trkpt>
      <trkpt lat="45.90427" lon="2.80069">
        <ele>555</ele>
        <time>2015-10-18T00:17:25Z</time>
      </trkpt>
      <trkpt lat="45.90447" lon="2.80043">
        <ele>554</ele>
        <time>2015-10-18T00:19:25Z</time>
      </trkpt>
      <trkpt lat="45.90465" lon="2.8002">
        <ele>552</ele>
        <time>2015-10-18T00:21:25Z</time>
      </trkpt>
      <trkpt lat="45.90494" lon="2.79988">
        <ele>550</ele>
        <time>2015-10-18T00:23:25Z</time>
      </trkpt>
      <trkpt lat="45.90501" lon="2.79966">
        <ele>546</ele>
        <time>2015-10-18T00:25:25Z</time>
      </trkpt>
      <trkpt lat="45.9051" lon="2.79937">
        <ele>540</ele>
        <time>2015-10-18T00:27:25Z</time>
      </trkpt>
      <trkpt lat="45.90526" lon="2.79917">
        <ele>537</ele>
        <time>2015-10-18T00:29:25Z</time>
      </trkpt>
      <trkpt lat="45.90549" lon="2.79905">
        <ele>539</ele>
        <time>2015-10-18T00:31:25Z</time>
      </trkpt>
      <trkpt lat="45.90571" lon="2.79899">
        <ele>541</ele>
        <time>2015-10-18T00:33:25Z</time>
      </trkpt>
      <trkpt lat="45.90592" lon="2.79893">
        <ele>540</ele>
        <time>2015-10-18T00:35:25Z</time>
      </trkpt>
      <trkpt lat="45.90615" lon="2.79902">
        <ele>540</ele>
        <time>2015-10-18T00:37:25Z</time>
      </trkpt>
      <trkpt lat="45.90632" lon="2.79909">
        <ele>539</ele>
        <time>2015-10-18T00:39:25Z</time>
      </trkpt>
      <trkpt lat="45.90648" lon="2.79927">
        <ele>540</ele>
        <time>2015-10-18T00:41:25Z</time>
      </trkpt>
      <trkpt lat="45.90659" lon="2.79943">
        <ele>542</ele>
        <time>2015-10-18T00:43:25Z</time>
      </trkpt>
      <trkpt lat="45.90671" lon="2.79963">
        <ele>545</ele>
        <time>2015-10-18T00:45:25Z</time>
      </trkpt>
      <trkpt lat="45.90688" lon="2.79983">
        <ele>547</ele>
        <time>2015-10-18T00:47:25Z</time>
      </trkpt>
      <trkpt lat="45.90702" lon="2.79997">
        <ele>548</ele>
        <time>2015-10-18T00:49:25Z</time>
      </trkpt>
      <trkpt lat="45.90719" lon="2.80013">
        <ele>548</ele>
        <time>2015-10-18T00:51:25Z</time>
      </trkpt>
      <trkpt lat="45.90727" lon="2.80032">
        <ele>549</ele>
        <time>2015-10-18T00:53:25Z</time>
      </trkpt>
      <trkpt lat="45.90745" lon="2.80064">
        <ele>549</ele>
        <time>2015-10-18T00:55:25Z</time>
      </trkpt>
      <trkpt lat="45.90754" lon="2.80078">
        <ele>548</ele>
        <time>2015-10-18T00:57:25Z</time>
      </trkpt>
      <trkpt lat="45.90765" lon="2.80109">
        <ele>544</ele>
        <time>2015-10-18T00:59:25Z</time>
      </trkpt>
      <trkpt lat="45.90772" lon="2.80134">
        <ele>541</ele>
        <time>2015-10-18T01:01:25Z</time>
      </trkpt>
      <trkpt lat="45.90786" lon="2.80143">
        <ele>537</ele>
        <time>2015-10-18T01:03:25Z</time>
      </trkpt>
      <trkpt lat="45.908" lon="2.80157">
        <ele>534</ele>
        <time>2015-10-18T01:05:25Z</time>
      </trkpt>
      <trkpt lat="45.90809" lon="2.80168">
        <ele>532</ele>
        <time>2015-10-18T01:07:25Z</time>
      </trkpt>
      <trkpt lat="45.90824" lon="2.8018">
        <ele>529</ele>
        <time>2015-10-18T01:09:25Z</time>
      </trkpt>
      <trkpt lat="45.90836" lon="2.80181">
        <ele>527</ele>
        <time>2015-10-18T01:11:25Z</time>
      </trkpt>
      <trkpt lat="45.90846" lon="2.80165">
        <ele>527</ele>
        <time>2015-10-18T01:13:25Z</time>
      </trkpt>
      <trkpt lat="45.90853" lon="2.80148">
        <ele>527</ele>
        <time>2015-10-18T01:15:25Z</time>
      </trkpt>
      <trkpt lat="45.9087" lon="2.80141">
        <ele>526</ele>
        <time>2015-10-18T01:17:25Z</time>
      </trkpt>
      <trkpt lat="45.90888" lon="2.80146">
        <ele>526</ele>
        <time>2015-10-18T01:19:25Z</time>
      </trkpt>
      <trkpt lat="45.90905" lon="2.80158">
        <ele>526</ele>
        <time>2015-10-18T01:21:25Z</time>
      </trkpt>
      <trkpt lat="45.90927" lon="2.8017">
        <ele>526</ele>
        <time>2015-10-18T01:23:25Z</time>
      </trkpt>
      <trkpt lat="45.90943" lon="2.80175">
        <ele>527</ele>
        <time>2015-10-18T01:25:25Z</time>
      </trkpt>
      <trkpt lat="45.90955" lon="2.8017">
        <ele>527</ele>
        <time>2015-10-18T01:27:25Z</time>
      </trkpt>
      <trkpt lat="45.90971" lon="2.80162">
        <ele>527</ele>
        <time>2015-10-18T01:29:25Z</time>
      </trkpt>
      <trkpt lat="45.90999" lon="2.8015">
        <ele>527</ele>
        <time>2015-10-18T01:31:25Z</time>
      </trkpt>
      <trkpt lat="45.91014" lon="2.80137">
        <ele>532</ele>
        <time>2015-10-18T01:33:25Z</time>
      </trkpt>
      <trkpt lat="45.91019" lon="2.80108">
        <ele>532</ele>
        <time>2015-10-18T01:35:25Z</time>
      </trkpt>
      <trkpt lat="45.91028" lon="2.80076">
        <ele>533</ele>
        <time>2015-10-18T01:37:25Z</time>
      </trkpt>
      <trkpt lat="45.91037" lon="2.8005">
        <ele>536</ele>
        <time>2015-10-18T01:39:25Z</time>
      </trkpt>
      <trkpt lat="45.91041" lon="2.8002">
        <ele>536</ele>
        <time>2015-10-18T01:41:25Z</time>
      </trkpt>
      <trkpt lat="45.91043" lon="2.79997">
        <ele>536</ele>
        <time>2015-10-18T01:43:25Z</time>
      </trkpt>
      <trkpt lat="45.91046" lon="2.79971">
        <ele>536</ele>
        <time>2015-10-18T01:45:25Z</time>
      </trkpt>
      <trkpt lat="45.91048" lon="2.79952">
        <ele>536</ele>
        <time>2015-10-18T01:47:25Z</time>
      </trkpt>
      <trkpt lat="45.91046" lon="2.79918">
        <ele>535</ele>
        <time>2015-10-18T01:49:25Z</time>
      </trkpt>
      <trkpt lat="45.91044" lon="2.79852">
        <ele>534</ele>
        <time>2015-10-18T01:51:25Z</time>
      </trkpt>
      <trkpt lat="45.91043" lon="2.79807">
        <ele>531</ele>
        <time>2015-10-18T01:53:25Z</time>
      </trkpt>
      <trkpt lat="45.9104" lon="2.79775">
        <ele>529</ele>
        <time>2015-10-18T01:55:25Z</time>
      </trkpt>
      <trkpt lat="45.9104" lon="2.79737">
        <ele>528</ele>
        <time>2015-10-18T01:57:25Z</time>
      </trkpt>
      <trkpt lat="45.91042" lon="2.79677">
        <ele>528</ele>
        <time>2015-10-18T01:59:25Z</time>
      </trkpt>
      <trkpt lat="45.91055" lon="2.79648">
        <ele>528</ele>
        <time>2015-10-18T02:01:25Z</time>
      </trkpt>
      <trkpt lat="45.91067" lon="2.79632">
        <ele>526</ele>
        <time>2015-10-18T02:03:25Z</time>
      </trkpt>
      <trkpt lat="45.9108" lon="2.79624">
        <ele>524</ele>
        <time>2015-10-18T02:05:25Z</time>
      </trkpt>
      <trkpt lat="45.9109" lon="2.7962">
        <ele>524</ele>
        <time>2015-10-18T02:07:25Z</time>
      </trkpt>
      <trkpt lat="45.91105" lon="2.79633">
        <ele>525</ele>
        <time>2015-10-18T02:09:25Z</time>
      </trkpt>
      <trkpt lat="45.91108" lon="2.79657">
        <ele>524</ele>
        <time>2015-10-18T02:11:25Z</time>
      </trkpt>
      <trkpt lat="45.91116" lon="2.79681">
        <ele>524</ele>
        <time>2015-10-18T02:13:25Z</time>
      </trkpt>
      <trkpt lat="45.91123" lon="2.79704">
        <ele>524</ele>
        <time>2015-10-18T02:15:25Z</time>
      </trkpt>
      <trkpt lat="45.9114" lon="2.79735">
        <ele>524</ele>
        <time>2015-10-18T02:17:25Z</time>
      </trkpt>
      <trkpt lat="45.91154" lon="2.7976">
        <ele>525</ele>
        <time>2015-10-18T02:19:25Z</time>
      </trkpt>
      <trkpt lat="45.91164" lon="2.79784">
        <ele>530</ele>
        <time>2015-10-18T02:21:25Z</time>
      </trkpt>
      <trkpt lat="45.91177" lon="2.7981">
        <ele>535</ele>
        <time>2015-10-18T02:23:25Z</time>
      </trkpt>
      <trkpt lat="45.91194" lon="2.79838">
        <ele>535</ele>
        <time>2015-10-18T02:25:25Z</time>
      </trkpt>
      <trkpt lat="45.91207" lon="2.79874">
        <ele>538</ele>
        <time>2015-10-18T02:27:25Z</time>
      </trkpt>
      <trkpt lat="45.91224" lon="2.79901">
        <ele>536</ele>
        <time>2015-10-18T02:29:25Z</time>
      </trkpt>
      <trkpt lat="45.91237" lon="2.79922">
        <ele>535</ele>
        <time>2015-10-18T02:31:25Z</time>
      </trkpt>
      <trkpt lat="45.91255" lon="2.79935">
        <ele>536</ele>
        <time>2015-10-18T02:33:25Z</time>
      </trkpt>
      <trkpt lat="45.91273" lon="2.79955">
        <ele>543</ele>
        <time>2015-10-18T02:35:25Z</time>
      </trkpt>
      <trkpt lat="45.91301" lon="2.79966">
        <ele>540</ele>
        <time>2015-10-18T02:37:25Z</time>
      </trkpt>
      <trkpt lat="45.91323" lon="2.79964">
        <ele>534</ele>
        <time>2015-10-18T02:39:25Z</time>
      </trkpt>
      <trkpt lat="45.91361" lon="2.79956">
        <ele>533</ele>
        <time>2015-10-18T02:41:25Z</time>
      </trkpt>
      <trkpt lat="45.91383" lon="2.79945">
        <ele>533</ele>
        <time>2015-10-18T02:43:25Z</time>
      </trkpt>
      <trkpt lat="45.91405" lon="2.79926">
        <ele>528</ele>
        <time>2015-10-18T02:45:25Z</time>
      </trkpt>
      <trkpt lat="45.91426" lon="2.79904">
        <ele>529</ele>
        <time>2015-10-18T02:47:25Z</time>
      </trkpt>
      <trkpt lat="45.91446" lon="2.79875">
        <ele>533</ele>
        <time>2015-10-18T02:49:25Z</time>
      </trkpt>
      <trkpt lat="45.91455" lon="2.79853">
        <ele>532</ele>
        <time>2015-10-18T02:51:25Z</time>
      </trkpt>
      <trkpt lat="45.91463" lon="2.79829">
        <ele>531</ele>
        <time>2015-10-18T02:53:25Z</time>
      </trkpt>
      <trkpt lat="45.91469" lon="2.79794">
        <ele>533</ele>
        <time>2015-10-18T02:55:25Z</time>
      </trkpt>
      <trkpt lat="45.91473" lon="2.79763">
        <ele>534</ele>
        <time>2015-10-18T02:57:25Z</time>
      </trkpt>
      <trkpt lat="45.91472" lon="2.7971">
        <ele>534</ele>
        <time>2015-10-18T02:59:25Z</time>
      </trkpt>
      <trkpt lat="45.91464" lon="2.79682">
        <ele>533</ele>
        <time>2015-10-18T03:01:25Z</time>
      </trkpt>
      <trkpt lat="45.91454" lon="2.79657">
        <ele>530</ele>
        <time>2015-10-18T03:03:25Z</time>
      </trkpt>
      <trkpt lat="45.91444" lon="2.79633">
        <ele>528</ele>
        <time>2015-10-18T03:05:25Z</time>
      </trkpt>
      <trkpt lat="45.91435" lon="2.79613">
        <ele>525</ele>
        <time>2015-10-18T03:07:25Z</time>
      </trkpt>
      <trkpt lat="45.91421" lon="2.79593">
        <ele>520</ele>
        <time>2015-10-18T03:09:25Z</time>
      </trkpt>
      <trkpt lat="45.91405" lon="2.79576">
        <ele>519</ele>
        <time>2015-10-18T03:11:25Z</time>
      </trkpt>
      <trkpt lat="45.91392" lon="2.79563">
        <ele>519</ele>
        <time>2015-10-18T03:13:25Z</time>
      </trkpt>
      <trkpt lat="45.91369" lon="2.7956">
        <ele>519</ele>
        <time>2015-10-18T03:15:25Z</time>
      </trkpt>
      <trkpt lat="45.9135" lon="2.79549">
        <ele>518</ele>
        <time>2015-10-18T03:17:25Z</time>
      </trkpt>
      <trkpt lat="45.9134" lon="2.79527">
        <ele>517</ele>
        <time>2015-10-18T03:19:25Z</time>
      </trkpt>
      <trkpt lat="45.91332" lon="2.795">
        <ele>516</ele>
        <time>2015-10-18T03:21:25Z</time>
      </trkpt>
      <trkpt lat="45.9132" lon="2.79466">
        <ele>519</ele>
        <time>2015-10-18T03:23:25Z</time>
      </trkpt>
      <trkpt lat="45.91314" lon="2.79445">
        <ele>520</ele>
        <time>2015-10-18T03:25:25Z</time>
      </trkpt>
      <trkpt lat="45.91314" lon="2.79427">
        <ele>520</ele>
        <time>2015-10-18T03:27:25Z</time>
      </trkpt>
      <trkpt lat="45.91329" lon="2.79418">
        <ele>518</ele>
        <time>2015-10-18T03:29:25Z</time>
      </trkpt>
      <trkpt lat="45.91338" lon="2.79414">
        <ele>517</ele>
        <time>2015-10-18T03:31:25Z</time>
      </trkpt>
      <trkpt lat="45.91364" lon="2.79411">
        <ele>518</ele>
        <time>2015-10-18T03:33:25Z</time>
      </trkpt>
      <trkpt lat="45.91385" lon="2.7943">
        <ele>519</ele>
        <time>2015-10-18T03:35:25Z</time>
      </trkpt>
      <trkpt lat="45.91403" lon="2.79452">
        <ele>522</ele>
        <time>2015-10-18T03:37:25Z</time>
      </trkpt>
      <trkpt lat="45.91423" lon="2.79464">
        <ele>525</ele>
        <time>2015-10-18T03:39:25Z</time>
      </trkpt>
      <trkpt lat="45.91455" lon="2.79481">
        <ele>530</ele>
        <time>2015-10-18T03:41:25Z</time>
      </trkpt>
      <trkpt lat="45.91479" lon="2.79488">
        <ele>534</ele>
        <time>2015-10-18T03:43:25Z</time>
      </trkpt>
      <trkpt lat="45.91513" lon="2.79498">
        <ele>538</ele>
        <time>2015-10-18T03:45:25Z</time>
      </trkpt>
      <trkpt lat="45.91535" lon="2.79506">
        <ele>538</ele>
        <time>2015-10-18T03:47:25Z</time>
      </trkpt>
      <trkpt lat="45.91567" lon="2.7952">
        <ele>542</ele>
        <time>2015-10-18T03:49:25Z</time>
      </trkpt>
      <trkpt lat="45.91587" lon="2.79533">
        <ele>548</ele>
        <time>2015-10-18T03:51:25Z</time>
      </trkpt>
      <trkpt lat="45.91613" lon="2.79539">
        <ele>549</ele>
        <time>2015-10-18T03:53:25Z</time>
      </trkpt>
      <trkpt lat="45.91639" lon="2.79548">
        <ele>551</ele>
        <time>2015-10-18T03:55:25Z</time>
      </trkpt>
      <trkpt lat="45.91667" lon="2.79559">
        <ele>553</ele>
        <time>2015-10-18T03:57:25Z</time>
      </trkpt>
      <trkpt lat="45.91689" lon="2.79581">
        <ele>558</ele>
        <time>2015-10-18T03:59:25Z</time>
      </trkpt>
      <trkpt lat="45.917" lon="2.79615">
        <ele>567</ele>
        <time>2015-10-18T04:01:25Z</time>
      </trkpt>
      <trkpt lat="45.91715" lon="2.79649">
        <ele>573</ele>
        <time>2015-10-18T04:03:25Z</time>
      </trkpt>
      <trkpt lat="45.91728" lon="2.79687">
        <ele>579</ele>
        <time>2015-10-18T04:05:25Z</time>
      </trkpt>
      <trkpt lat="45.9174" lon="2.79733">
        <ele>586</ele>
        <time>2015-10-18T04:07:25Z</time>
      </trkpt>
      <trkpt lat="45.91761" lon="2.79776">
        <ele>593</ele>
        <time>2015-10-18T04:09:25Z</time>
      </trkpt>
      <trkpt lat="45.91787" lon="2.79827">
        <ele>605</ele>
        <time>2015-10-18T04:11:25Z</time>
      </trkpt>
      <trkpt lat="45.918" lon="2.79846">
        <ele>608</ele>
        <time>2015-10-18T04:13:25Z</time>
      </trkpt>
      <trkpt lat="45.91817" lon="2.79866">
        <ele>612</ele>
        <time>2015-10-18T04:15:25Z</time>
      </trkpt>
      <trkpt lat="45.91835" lon="2.79884">
        <ele>616</ele>
        <time>2015-10-18T04:17:25Z</time>
      </trkpt>
      <trkpt lat="45.91853" lon="2.79895">
        <ele>619</ele>
        <time>2015-10-18T04:19:25Z</time>
      </trkpt>
      <trkpt lat="45.91874" lon="2.79898">
        <ele>620</ele>
        <time>2015-10-18T04:21:25Z</time>
      </trkpt>
      <trkpt lat="45.919" lon="2.79897">
        <ele>618</ele>
        <time>2015-10-18T04:23:25Z</time>
      </trkpt>
      <trkpt lat="45.91907" lon="2.79911">
        <ele>624</ele>
        <time>2015-10-18T04:25:25Z</time>
      </trkpt>
      <trkpt lat="45.91894" lon="2.79917">
        <ele>627</ele>
        <time>2015-10-18T04:27:25Z</time>
      </trkpt>
      <trkpt lat="45.91879" lon="2.7993">
        <ele>632</ele>
        <time>2015-10-18T04:29:25Z</time>
      </trkpt>
      <trkpt lat="45.91859" lon="2.79935">
        <ele>635</ele>
        <time>2015-10-18T04:31:25Z</time>
      </trkpt>
      <trkpt lat="45.91831" lon="2.79939">
        <ele>637</ele>
        <time>2015-10-18T04:33:25Z</time>
      </trkpt>
      <trkpt lat="45.91816" lon="2.79935">
        <ele>638</ele>
        <time>2015-10-18T04:35:25Z</time>
      </trkpt>
      <trkpt lat="45.91797" lon="2.79924">
        <ele>637</ele>
        <time>2015-10-18T04:37:25Z</time>
      </trkpt>
      <trkpt lat="45.91787" lon="2.79915">
        <ele>636</ele>
        <time>2015-10-18T04:39:25Z</time>
      </trkpt>
      <trkpt lat="45.9176" lon="2.79905">
        <ele>637</ele>
        <time>2015-10-18T04:41:25Z</time>
      </trkpt>
      <trkpt lat="45.91726" lon="2.7989">
        <ele>637</ele>
        <time>2015-10-18T04:43:25Z</time>
      </trkpt>
      <trkpt lat="45.9171" lon="2.79875">
        <ele>635</ele>
        <time>2015-10-18T04:45:25Z</time>
      </trkpt>
      <trkpt lat="45.91681" lon="2.79845">
        <ele>633</ele>
        <time>2015-10-18T04:47:25Z</time>
      </trkpt>
      <trkpt lat="45.9167" lon="2.79832">
        <ele>632</ele>
        <time>2015-10-18T04:49:25Z</time>
      </trkpt>
      <trkpt lat="45.91655" lon="2.79827">
        <ele>627</ele>
        <time>2015-10-18T04:51:25Z</time>
      </trkpt>
      <trkpt lat="45.9165" lon="2.79842">
        <ele>628</ele>
        <time>2015-10-18T04:53:25Z</time>
      </trkpt>
      <trkpt lat="45.91656" lon="2.79857">
        <ele>633</ele>
        <time>2015-10-18T04:55:25Z</time>
      </trkpt>
      <trkpt lat="45.91664" lon="2.79875">
        <ele>640</ele>
        <time>2015-10-18T04:57:25Z</time>
      </trkpt>
      <trkpt lat="45.9168" lon="2.79919">
        <ele>648</ele>
        <time>2015-10-18T04:59:25Z</time>
      </trkpt>
      <trkpt lat="45.917" lon="2.79934">
        <ele>650</ele>
        <time>2015-10-18T05:01:25Z</time>
      </trkpt>
      <trkpt lat="45.91723" lon="2.79951">
        <ele>652</ele>
        <time>2015-10-18T05:03:25Z</time>
      </trkpt>
      <trkpt lat="45.91747" lon="2.79962">
        <ele>654</ele>
        <time>2015-10-18T05:05:25Z</time>
      </trkpt>
      <trkpt lat="45.91762" lon="2.79969">
        <ele>655</ele>
        <time>2015-10-18T05:07:25Z</time>
      </trkpt>
      <trkpt lat="45.91795" lon="2.79987">
        <ele>657</ele>
        <time>2015-10-18T05:09:25Z</time>
      </trkpt>
      <trkpt lat="45.91822" lon="2.80005">
        <ele>660</ele>
        <time>2015-10-18T05:11:25Z</time>
      </trkpt>
      <trkpt lat="45.91865" lon="2.80016">
        <ele>660</ele>
        <time>2015-10-18T05:13:25Z</time>
      </trkpt>
      <trkpt lat="45.91889" lon="2.80016">
        <ele>659</ele>
        <time>2015-10-18T05:15:25Z</time>
      </trkpt>
      <trkpt lat="45.91912" lon="2.80015">
        <ele>659</ele>
        <time>2015-10-18T05:17:25Z</time>
      </trkpt>
      <trkpt lat="45.91946" lon="2.80001">
        <ele>659</ele>
        <time>2015-10-18T05:19:25Z</time>
      </trkpt>
      <trkpt lat="45.91972" lon="2.79978">
        <ele>654</ele>
        <time>2015-10-18T05:21:25Z</time>
      </trkpt>
      <trkpt lat="45.91997" lon="2.79978">
        <ele>657</ele>
        <time>2015-10-18T05:23:25Z</time>
      </trkpt>
      <trkpt lat="45.92013" lon="2.79989">
        <ele>660</ele>
        <time>2015-10-18T05:25:25Z</time>
      </trkpt>
      <trkpt lat="45.92037" lon="2.8">
        <ele>662</ele>
        <time>2015-10-18T05:27:25Z</time>
      </trkpt>
      <trkpt lat="45.92065" lon="2.80018">
        <ele>663</ele>
        <time>2015-10-18T05:29:25Z</time>
      </trkpt>
      <trkpt lat="45.92081" lon="2.80029">
        <ele>664</ele>
        <time>2015-10-18T05:31:25Z</time>
      </trkpt>
      <trkpt lat="45.92102" lon="2.80042">
        <ele>663</ele>
        <time>2015-10-18T05:33:25Z</time>
      </trkpt>
      <trkpt lat="45.92121" lon="2.80069">
        <ele>665</ele>
        <time>2015-10-18T05:35:25Z</time>
      </trkpt>
      <trkpt lat="45.92132" lon="2.80093">
        <ele>667</ele>
        <time>2015-10-18T05:37:25Z</time>
      </trkpt>
      <trkpt lat="45.92143" lon="2.80122">
        <ele>668</ele>
        <time>2015-10-18T05:39:25Z</time>
      </trkpt>
      <trkpt lat="45.92155" lon="2.80139">
        <ele>669</ele>
        <time>2015-10-18T05:41:25Z</time>
      </trkpt>
      <trkpt lat="45.92187" lon="2.80172">
        <ele>669</ele>
        <time>2015-10-18T05:43:25Z</time>
      </trkpt>
      <trkpt lat="45.92194" lon="2.80207">
        <ele>671</ele>
        <time>2015-10-18T05:45:25Z</time>
      </trkpt>
      <trkpt lat="45.92197" lon="2.80253">
        <ele>675</ele>
        <time>2015-10-18T05:47:25Z</time>
      </trkpt>
      <trkpt lat="45.922" lon="2.80302">
        <ele>677</ele>
        <time>2015-10-18T05:49:25Z</time>
      </trkpt>
      <trkpt lat="45.92205" lon="2.8034">
        <ele>679</ele>
        <time>2015-10-18T05:51:25Z</time>
      </trkpt>
      <trkpt lat="45.92211" lon="2.80391">
        <ele>680</ele>
        <time>2015-10-18T05:53:25Z</time>
      </trkpt>
      <trkpt lat="45.92214" lon="2.80433">
        <ele>682</ele>
        <time>2015-10-18T05:55:25Z</time>
      </trkpt>
      <trkpt lat="45.92217" lon="2.80496">
        <ele>685</ele>
        <time>2015-10-18T05:57:25Z</time>
      </trkpt>
      <trkpt lat="45.92218" lon="2.80521">
        <ele>686</ele>
        <time>2015-10-18T05:59:25Z</time>
      </trkpt>
      <trkpt lat="45.92231" lon="2.80563">
        <ele>686</ele>
        <time>2015-10-18T06:01:25Z</time>
      </trkpt>
      <trkpt lat="45.92245" lon="2.80601">
        <ele>686</ele>
        <time>2015-10-18T06:03:25Z</time>
      </trkpt>
      <trkpt lat="45.92253" lon="2.8064">
        <ele>686</ele>
        <time>2015-10-18T06:05:25Z</time>
      </trkpt>
      <trkpt lat="45.92252" lon="2.80658">
        <ele>686</ele>
        <time>2015-10-18T06:07:25Z</time>
      </trkpt>
      <trkpt lat="45.92249" lon="2.80678">
        <ele>686</ele>
        <time>2015-10-18T06:09:25Z</time>
      </trkpt>
      <trkpt lat="45.92242" lon="2.80699">
        <ele>687</ele>
        <time>2015-10-18T06:11:25Z</time>
      </trkpt>
      <trkpt lat="45.92238" lon="2.80719">
        <ele>687</ele>
        <time>2015-10-18T06:13:25Z</time>
      </trkpt>
      <trkpt lat="45.92224" lon="2.80723">
        <ele>688</ele>
        <time>2015-10-18T06:15:25Z</time>
      </trkpt>
      <trkpt lat="45.92212" lon="2.80721">
        <ele>688</ele>
        <time>2015-10-18T06:17:25Z</time>
      </trkpt>
      <trkpt lat="45.92197" lon="2.80717">
        <ele>688</ele>
        <time>2015-10-18T06:19:25Z</time>
      </trkpt>
      <trkpt lat="45.92165" lon="2.80714">
        <ele>689</ele>
        <time>2015-10-18T06:21:25Z</time>
      </trkpt>
      <trkpt lat="45.92153" lon="2.80719">
        <ele>689</ele>
        <time>2015-10-18T06:23:25Z</time>
      </trkpt>
      <trkpt lat="45.92124" lon="2.80741">
        <ele>690</ele>
        <time>2015-10-18T06:25:25Z</time>
      </trkpt>
      <trkpt lat="45.92103" lon="2.80781">
        <ele>692</ele>
        <time>2015-10-18T06:27:25Z</time>
      </trkpt>
      <trkpt lat="45.92099" lon="2.80796">
        <ele>692</ele>
        <time>2015-10-18T06:29:25Z</time>
      </trkpt>
      <trkpt lat="45.92079" lon="2.80842">
        <ele>693</ele>
        <time>2015-10-18T06:31:25Z</time>
      </trkpt>
      <trkpt lat="45.92072" lon="2.80866">
        <ele>694</ele>
        <time>2015-10-18T06:33:25Z</time>
      </trkpt>
      <trkpt lat="45.92094" lon="2.8089">
        <ele>694</ele>
        <time>2015-10-18T06:35:25Z</time>
      </trkpt>
      <trkpt lat="45.92137" lon="2.8094">
        <ele>696</ele>
        <time>2015-10-18T06:37:25Z</time>
      </trkpt>
      <trkpt lat="45.92158" lon="2.80977">
        <ele>697</ele>
        <time>2015-10-18T06:39:25Z</time>
      </trkpt>
      <trkpt lat="45.92175" lon="2.80998">
        <ele>698</ele>
        <time>2015-10-18T06:41:25Z</time>
      </trkpt>
      <trkpt lat="45.92174" lon="2.81016">
        <ele>698</ele>
        <time>2015-10-18T06:43:25Z</time>
      </trkpt>
      <trkpt lat="45.92138" lon="2.81032">
        <ele>697</ele>
        <time>2015-10-18T06:45:25Z</time>
      </trkpt>
      <trkpt lat="45.92114" lon="2.81044">
        <ele>696</ele>
        <time>2015-10-18T06:47:25Z</time>
      </trkpt>
      <trkpt lat="45.92095" lon="2.81053">
        <ele>695</ele>
        <time>2015-10-18T06:49:25Z</time>
      </trkpt>
      <trkpt lat="45.92078" lon="2.81074">
        <ele>694</ele>
        <time>2015-10-18T06:51:25Z</time>
      </trkpt>
      <trkpt lat="45.92049" lon="2.81109">
        <ele>692</ele>
        <time>2015-10-18T06:53:25Z</time>
      </trkpt>
      <trkpt lat="45.92021" lon="2.81116">
        <ele>690</ele>
        <time>2015-10-18T06:55:25Z</time>
      </trkpt>
      <trkpt lat="45.92" lon="2.81127">
        <ele>688</ele>
        <time>2015-10-18T06:57:25Z</time>
      </trkpt>
      <trkpt lat="45.91963" lon="2.81147">
        <ele>684</ele>
        <time>2015-10-18T06:59:25Z</time>
      </trkpt>
      <trkpt lat="45.91936" lon="2.81156">
        <ele>680</ele>
        <time>2015-10-18T07:01:25Z</time>
      </trkpt>
      <trkpt lat="45.91911" lon="2.81178">
        <ele>676</ele>
        <time>2015-10-18T07:03:25Z</time>
      </trkpt>
      <trkpt lat="45.919" lon="2.81206">
        <ele>675</ele>
        <time>2015-10-18T07:05:25Z</time>
      </trkpt>
      <trkpt lat="45.91901" lon="2.81256">
        <ele>677</ele>
        <time>2015-10-18T07:07:25Z</time>
      </trkpt>
      <trkpt lat="45.91909" lon="2.81274">
        <ele>678</ele>
        <time>2015-10-18T07:09:25Z</time>
      </trkpt>
      <trkpt lat="45.91914" lon="2.813">
        <ele>678</ele>
        <time>2015-10-18T07:11:25Z</time>
      </trkpt>
      <trkpt lat="45.9192" lon="2.81317">
        <ele>678</ele>
        <time>2015-10-18T07:13:25Z</time>
      </trkpt>
      <trkpt lat="45.91933" lon="2.8134">
        <ele>679</ele>
        <time>2015-10-18T07:15:25Z</time>
      </trkpt>
      <trkpt lat="45.91944" lon="2.81347">
        <ele>680</ele>
        <time>2015-10-18T07:17:25Z</time>
      </trkpt>
      <trkpt lat="45.91965" lon="2.81377">
        <ele>683</ele>
        <time>2015-10-18T07:19:25Z</time>
      </trkpt>
      <trkpt lat="45.91977" lon="2.81392">
        <ele>684</ele>
        <time>2015-10-18T07:21:25Z</time>
      </trkpt>
      <trkpt lat="45.91997" lon="2.81404">
        <ele>688</ele>
        <time>2015-10-18T07:23:25Z</time>
      </trkpt>
      <trkpt lat="45.9202" lon="2.81418">
        <ele>689</ele>
        <time>2015-10-18T07:25:25Z</time>
      </trkpt>
      <trkpt lat="45.92029" lon="2.81418">
        <ele>689</ele>
        <time>2015-10-18T07:27:25Z</time>
      </trkpt>
      <trkpt lat="45.92048" lon="2.81427">
        <ele>689</ele>
        <time>2015-10-18T07:29:25Z</time>
      </trkpt>
      <trkpt lat="45.92082" lon="2.81441">
        <ele>691</ele>
        <time>2015-10-18T07:31:25Z</time>
      </trkpt>
      <trkpt lat="45.92094" lon="2.81447">
        <ele>692</ele>
        <time>2015-10-18T07:33:25Z</time>
      </trkpt>
      <trkpt lat="45.92122" lon="2.81463">
        <ele>693</ele>
        <time>2015-10-18T07:35:25Z</time>
      </trkpt>
      <trkpt lat="45.92141" lon="2.81473">
        <ele>695</ele>
        <time>2015-10-18T07:37:25Z</time>
      </trkpt>
      <trkpt lat="45.92158" lon="2.81477">
        <ele>696</ele>
        <time>2015-10-18T07:39:25Z</time>
      </trkpt>
      <trkpt lat="45.92167" lon="2.81484">
        <ele>696</ele>
        <time>2015-10-18T07:41:25Z</time>
      </trkpt>
      <trkpt lat="45.92178" lon="2.81485">
        <ele>697</ele>
        <time>2015-10-18T07:43:25Z</time>
      </trkpt>
      <trkpt lat="45.92166" lon="2.81501">
        <ele>696</ele>
        <time>2015-10-18T07:45:25Z</time>
      </trkpt>
      <trkpt lat="45.92137" lon="2.81502">
        <ele>694</ele>
        <time>2015-10-18T07:47:25Z</time>
      </trkpt>
      <trkpt lat="45.92125" lon="2.81507">
        <ele>693</ele>
        <time>2015-10-18T07:49:25Z</time>
      </trkpt>
      <trkpt lat="45.92116" lon="2.81516">
        <ele>692</ele>
        <time>2015-10-18T07:51:25Z</time>
      </trkpt>
      <trkpt lat="45.9211" lon="2.81535">
        <ele>692</ele>
        <time>2015-10-18T07:53:25Z</time>
      </trkpt>
      <trkpt lat="45.92101" lon="2.81551">
        <ele>691</ele>
        <time>2015-10-18T07:55:25Z</time>
      </trkpt>
      <trkpt lat="45.92091" lon="2.81589">
        <ele>690</ele>
        <time>2015-10-18T07:57:25Z</time>
      </trkpt>
      <trkpt lat="45.92091" lon="2.81647">
        <ele>688</ele>
        <time>2015-10-18T07:59:25Z</time>
      </trkpt>
      <trkpt lat="45.92093" lon="2.81688">
        <ele>687</ele>
        <time>2015-10-18T08:01:25Z</time>
      </trkpt>
      <trkpt lat="45.9209" lon="2.81706">
        <ele>687</ele>
        <time>2015-10-18T08:03:25Z</time>
      </trkpt>
      <trkpt lat="45.92085" lon="2.81723">
        <ele>686</ele>
        <time>2015-10-18T08:05:25Z</time>
      </trkpt>
      <trkpt lat="45.9207" lon="2.81737">
        <ele>686</ele>
        <time>2015-10-18T08:07:25Z</time>
      </trkpt>
      <trkpt lat="45.92044" lon="2.81731">
        <ele>686</ele>
        <time>2015-10-18T08:09:25Z</time>
      </trkpt>
      <trkpt lat="45.9203" lon="2.81727">
        <ele>686</ele>
        <time>2015-10-18T08:11:25Z</time>
      </trkpt>
      <trkpt lat="45.92018" lon="2.81725">
        <ele>685</ele>
        <time>2015-10-18T08:13:25Z</time>
      </trkpt>
      <trkpt lat="45.92006" lon="2.81723">
        <ele>685</ele>
        <time>2015-10-18T08:15:25Z</time>
      </trkpt>
      <trkpt lat="45.91982" lon="2.81724">
        <ele>687</ele>
        <time>2015-10-18T08:17:25Z</time>
      </trkpt>
      <trkpt lat="45.91963" lon="2.81727">
        <ele>689</ele>
        <time>2015-10-18T08:19:25Z</time>
      </trkpt>
      <trkpt lat="45.91945" lon="2.81734">
        <ele>690</ele>
        <time>2015-10-18T08:21:25Z</time>
      </trkpt>
      <trkpt lat="45.91915" lon="2.81749">
        <ele>693</ele>
        <time>2015-10-18T08:23:25Z</time>
      </trkpt>
      <trkpt lat="45.91901" lon="2.81756">
        <ele>694</ele>
        <time>2015-10-18T08:25:25Z</time>
      </trkpt>
      <trkpt lat="45.91859" lon="2.81764">
        <ele>696</ele>
        <time>2015-10-18T08:27:25Z</time>
      </trkpt>
      <trkpt lat="45.91843" lon="2.81767">
        <ele>697</ele>
        <time>2015-10-18T08:29:25Z</time>
      </trkpt>
      <trkpt lat="45.91828" lon="2.81769">
        <ele>698</ele>
        <time>2015-10-18T08:31:25Z</time>
      </trkpt>
      <trkpt lat="45.91809" lon="2.8177">
        <ele>699</ele>
        <time>2015-10-18T08:33:25Z</time>
      </trkpt>
      <trkpt lat="45.9179" lon="2.81757">
        <ele>700</ele>
        <time>2015-10-18T08:35:25Z</time>
      </trkpt>
      <trkpt lat="45.91774" lon="2.81737">
        <ele>701</ele>
        <time>2015-10-18T08:37:25Z</time>
      </trkpt>
      <trkpt lat="45.91761" lon="2.81707">
        <ele>702</ele>
        <time>2015-10-18T08:39:25Z</time>
      </trkpt>
      <trkpt lat="45.91742" lon="2.81674">
        <ele>703</ele>
        <time>2015-10-18T08:41:25Z</time>
      </trkpt>
      <trkpt lat="45.91691" lon="2.81601">
        <ele>701</ele>
        <time>2015-10-18T08:43:25Z</time>
      </trkpt>
      <trkpt lat="45.91676" lon="2.81587">
        <ele>701</ele>
        <time>2015-10-18T08:45:25Z</time>
      </trkpt>
      <trkpt lat="45.91655" lon="2.81589">
        <ele>701</ele>
        <time>2015-10-18T08:47:25Z</time>
      </trkpt>
      <trkpt lat="45.91637" lon="2.81585">
        <ele>702</ele>
        <time>2015-10-18T08:49:25Z</time>
      </trkpt>
      <trkpt lat="45.91611" lon="2.81573">
        <ele>702</ele>
        <time>2015-10-18T08:51:25Z</time>
      </trkpt>
      <trkpt lat="45.91584" lon="2.81559">
        <ele>701</ele>
        <time>2015-10-18T08:53:25Z</time>
      </trkpt>
      <trkpt lat="45.91568" lon="2.81548">
        <ele>701</ele>
        <time>2015-10-18T08:55:25Z</time>
      </trkpt>
      <trkpt lat="45.91536" lon="2.81539">
        <ele>701</ele>
        <time>2015-10-18T08:57:25Z</time>
      </trkpt>
      <trkpt lat="45.91523" lon="2.81519">
        <ele>701</ele>
        <time>2015-10-18T08:59:25Z</time>
      </trkpt>
      <trkpt lat="45.91501" lon="2.81488">
        <ele>700</ele>
        <time>2015-10-18T09:01:25Z</time>
      </trkpt>
      <trkpt lat="45.91474" lon="2.81469">
        <ele>699</ele>
        <time>2015-10-18T09:03:25Z</time>
      </trkpt>
      <trkpt lat="45.91423" lon="2.81415">
        <ele>699</ele>
        <time>2015-10-18T09:05:25Z</time>
      </trkpt>
      <trkpt lat="45.91382" lon="2.81369">
        <ele>698</ele>
        <time>2015-10-18T09:07:25Z</time>
      </trkpt>
      <trkpt lat="45.91346" lon="2.81325">
        <ele>698</ele>
        <time>2015-10-18T09:09:25Z</time>
      </trkpt>
      <trkpt lat="45.91328" lon="2.81295">
        <ele>697</ele>
        <time>2015-10-18T09:11:25Z</time>
      </trkpt>
      <trkpt lat="45.91316" lon="2.81268">
        <ele>697</ele>
        <time>2015-10-18T09:13:25Z</time>
      </trkpt>
      <trkpt lat="45.91308" lon="2.81254">
        <ele>696</ele>
        <time>2015-10-18T09:15:25Z</time>
      </trkpt>
      <trkpt lat="45.91299" lon="2.81224">
        <ele>695</ele>
        <time>2015-10-18T09:17:25Z</time>
      </trkpt>
      <trkpt lat="45.9129" lon="2.81182">
        <ele>695</ele>
        <time>2015-10-18T09:19:25Z</time>
      </trkpt>
      <trkpt lat="45.91278" lon="2.81151">
        <ele>693</ele>
        <time>2015-10-18T09:21:25Z</time>
      </trkpt>
      <trkpt lat="45.91265" lon="2.8112">
        <ele>691</ele>
        <time>2015-10-18T09:23:25Z</time>
      </trkpt>
      <trkpt lat="45.91233" lon="2.81094">
        <ele>688</ele>
        <time>2015-10-18T09:25:25Z</time>
      </trkpt>
      <trkpt lat="45.91198" lon="2.81108">
        <ele>683</ele>
        <time>2015-10-18T09:27:25Z</time>
      </trkpt>
      <trkpt lat="45.91181" lon="2.81125">
        <ele>680</ele>
        <time>2015-10-18T09:29:25Z</time>
      </trkpt>
      <trkpt lat="45.91173" lon="2.81139">
        <ele>679</ele>
        <time>2015-10-18T09:31:25Z</time>
      </trkpt>
      <trkpt lat="45.91152" lon="2.81177">
        <ele>672</ele>
        <time>2015-10-18T09:33:25Z</time>
      </trkpt>
      <trkpt lat="45.91152" lon="2.81254">
        <ele>669</ele>
        <time>2015-10-18T09:35:25Z</time>
      </trkpt>
      <trkpt lat="45.9115" lon="2.81298">
        <ele>669</ele>
        <time>2015-10-18T09:37:25Z</time>
      </trkpt>
      <trkpt lat="45.91149" lon="2.81326">
        <ele>670</ele>
        <time>2015-10-18T09:39:25Z</time>
      </trkpt>
      <trkpt lat="45.91141" lon="2.8142">
        <ele>670</ele>
        <time>2015-10-18T09:41:25Z</time>
      </trkpt>
      <trkpt lat="45.91143" lon="2.81458">
        <ele>669</ele>
        <time>2015-10-18T09:43:25Z</time>
      </trkpt>
      <trkpt lat="45.91159" lon="2.81508">
        <ele>668</ele>
        <time>2015-10-18T09:45:25Z</time>
      </trkpt>
      <trkpt lat="45.91165" lon="2.81526">
        <ele>668</ele>
        <time>2015-10-18T09:47:25Z</time>
      </trkpt>
      <trkpt lat="45.91159" lon="2.81542">
        <ele>667</ele>
        <time>2015-10-18T09:49:25Z</time>
      </trkpt>
      <trkpt lat="45.91152" lon="2.81559">
        <ele>666</ele>
        <time>2015-10-18T09:51:25Z</time>
      </trkpt>
      <trkpt lat="45.91146" lon="2.81572">
        <ele>665</ele>
        <time>2015-10-18T09:53:25Z</time>
      </trkpt>
      <trkpt lat="45.91141" lon="2.81587">
        <ele>665</ele>
        <time>2015-10-18T09:55:25Z</time>
      </trkpt>
      <trkpt lat="45.91133" lon="2.81587">
        <ele>665</ele>
        <time>2015-10-18T09:57:25Z</time>
      </trkpt>
      <trkpt lat="45.91124" lon="2.81565">
        <ele>664</ele>
        <time>2015-10-18T09:59:25Z</time>
      </trkpt>
      <trkpt lat="45.91114" lon="2.81558">
        <ele>664</ele>
        <time>2015-10-18T10:01:25Z</time>
      </trkpt>
      <trkpt lat="45.91102" lon="2.81547">
        <ele>662</ele>
        <time>2015-10-18T10:03:25Z</time>
      </trkpt>
      <trkpt lat="45.91091" lon="2.81537">
        <ele>661</ele>
        <time>2015-10-18T10:05:25Z</time>
      </trkpt>
      <trkpt lat="45.91077" lon="2.81528">
        <ele>660</ele>
        <time>2015-10-18T10:07:25Z</time>
      </trkpt>
      <trkpt lat="45.91066" lon="2.81522">
        <ele>662</ele>
        <time>2015-10-18T10:09:25Z</time>
      </trkpt>
      <trkpt lat="45.91054" lon="2.81517">
        <ele>663</ele>
        <time>2015-10-18T10:11:25Z</time>
      </trkpt>
      <trkpt lat="45.91046" lon="2.81513">
        <ele>664</ele>
        <time>2015-10-18T10:13:25Z</time>
      </trkpt>
      <trkpt lat="45.91036" lon="2.81504">
        <ele>665</ele>
        <time>2015-10-18T10:15:25Z</time>
      </trkpt>
      <trkpt lat="45.91034" lon="2.81487">
        <ele>665</ele>
        <time>2015-10-18T10:17:25Z</time>
      </trkpt>
      <trkpt lat="45.91031" lon="2.81432">
        <ele>663</ele>
        <time>2015-10-18T10:19:25Z</time>
      </trkpt>
      <trkpt lat="45.91025" lon="2.81375">
        <ele>661</ele>
        <time>2015-10-18T10:21:25Z</time>
      </trkpt>
      <trkpt lat="45.91024" lon="2.81348">
        <ele>659</ele>
        <time>2015-10-18T10:23:25Z</time>
      </trkpt>
      <trkpt lat="45.91025" lon="2.81304">
        <ele>655</ele>
        <time>2015-10-18T10:25:25Z</time>
      </trkpt>
      <trkpt lat="45.9102" lon="2.81289">
        <ele>654</ele>
        <time>2015-10-18T10:27:25Z</time>
      </trkpt>
      <trkpt lat="45.91011" lon="2.81271">
        <ele>652</ele>
        <time>2015-10-18T10:29:25Z</time>
      </trkpt>
      <trkpt lat="45.91006" lon="2.81224">
        <ele>648</ele>
        <time>2015-10-18T10:31:25Z</time>
      </trkpt>
      <trkpt lat="45.91001" lon="2.81213">
        <ele>646</ele>
        <time>2015-10-18T10:33:25Z</time>
      </trkpt>
      <trkpt lat="45.90995" lon="2.81194">
        <ele>646</ele>
        <time>2015-10-18T10:35:25Z</time>
      </trkpt>
      <trkpt lat="45.90988" lon="2.8119">
        <ele>648</ele>
        <time>2015-10-18T10:37:25Z</time>
      </trkpt>
      <trkpt lat="45.90974" lon="2.81189">
        <ele>651</ele>
        <time>2015-10-18T10:39:25Z</time>
      </trkpt>
      <trkpt lat="45.90961" lon="2.81189">
        <ele>655</ele>
        <time>2015-10-18T10:41:25Z</time>
      </trkpt>
      <trkpt lat="45.90943" lon="2.81177">
        <ele>660</ele>
        <time>2015-10-18T10:43:25Z</time>
      </trkpt>
      <trkpt lat="45.90946" lon="2.81152">
        <ele>659</ele>
        <time>2015-10-18T10:45:25Z</time>
      </trkpt>
      <trkpt lat="45.90951" lon="2.81127">
        <ele>659</ele>
        <time>2015-10-18T10:47:25Z</time>
      </trkpt>
      <trkpt lat="45.90952" lon="2.81118">
        <ele>658</ele>
        <time>2015-10-18T10:49:25Z</time>
      </trkpt>
      <trkpt lat="45.90955" lon="2.81104">
        <ele>658</ele>
        <time>2015-10-18T10:51:25Z</time>
      </trkpt>
      <trkpt lat="45.90957" lon="2.81083">
        <ele>658</ele>
        <time>2015-10-18T10:53:25Z</time>
      </trkpt>
      <trkpt lat="45.90958" lon="2.81062">
        <ele>658</ele>
        <time>2015-10-18T10:55:25Z</time>
      </trkpt>
      <trkpt lat="45.90957" lon="2.81047">
        <ele>658</ele>
        <time>2015-10-18T10:57:25Z</time>
      </trkpt>
      <trkpt lat="45.90954" lon="2.8102">
        <ele>660</ele>
        <time>2015-10-18T10:59:25Z</time>
      </trkpt>
      <trkpt lat="45.90945" lon="2.81004">
        <ele>663</ele>
        <time>2015-10-18T11:01:25Z</time>
      </trkpt>
      <trkpt lat="45.90936" lon="2.8098">
        <ele>663</ele>
        <time>2015-10-18T11:03:25Z</time>
      </trkpt>
      <trkpt lat="45.9091" lon="2.80965">
        <ele>669</ele>
        <time>2015-10-18T11:05:25Z</time>
      </trkpt>
      <trkpt lat="45.90898" lon="2.80961">
        <ele>671</ele>
        <time>2015-10-18T11:07:25Z</time>
      </trkpt>
      <trkpt lat="45.90877" lon="2.80941">
        <ele>672</ele>
        <time>2015-10-18T11:09:25Z</time>
      </trkpt>
      <trkpt lat="45.90866" lon="2.80925">
        <ele>672</ele>
        <time>2015-10-18T11:11:25Z</time>
      </trkpt>
      <trkpt lat="45.90854" lon="2.8092">
        <ele>674</ele>
        <time>2015-10-18T11:13:25Z</time>
      </trkpt>
      <trkpt lat="45.90825" lon="2.80925">
        <ele>675</ele>
        <time>2015-10-18T11:15:25Z</time>
      </trkpt>
      <trkpt lat="45.90806" lon="2.80957">
        <ele>673</ele>
        <time>2015-10-18T11:17:25Z</time>
      </trkpt>
      <trkpt lat="45.90802" lon="2.80974">
        <ele>673</ele>
        <time>2015-10-18T11:19:25Z</time>
      </trkpt>
      <trkpt lat="45.90804" lon="2.8099">
        <ele>674</ele>
        <time>2015-10-18T11:21:25Z</time>
      </trkpt>
      <trkpt lat="45.90819" lon="2.81011">
        <ele>678</ele>
        <time>2015-10-18T11:23:25Z</time>
      </trkpt>
      <trkpt lat="45.9084" lon="2.81009">
        <ele>679</ele>
        <time>2015-10-18T11:25:25Z</time>
      </trkpt>
    </trkseg>
  </trk>
</gpx>